<?xml version="1.0" encoding="UTF-8" standalone="no" ?>
<gpx xmlns="http://www.topografix.com/GPX/1/1" xmlns:xsi="http://www.w3.org/2001/XMLSchema-instance" xsi:schemaLocation="http://www.topografix.com/GPX/1/1 http://www.topografix.com/GPX/1/1/gpx.xsd" version="1.1" creator="VisuGPX - https://www.visugpx.com">
  <metadata>
    <name>04-Estoublon</name>
    <desc><![CDATA[04-Estoublon : gorges de Trévans]]></desc>
  </metadata>
  <trk>
    <name><![CDATA[2014-05-25-estoublon_modif]]></name>
    <trkseg>
      <trkpt lat="43.94748" lon="6.22186">
        <ele>599.8</ele>
        <time>2014-05-25T08:06:54Z</time>
      </trkpt>
      <trkpt lat="43.94742" lon="6.22178">
        <ele>600.2</ele>
        <time>2014-05-25T08:07:43Z</time>
      </trkpt>
      <trkpt lat="43.94751" lon="6.22177">
        <ele>600.1</ele>
        <time>2014-05-25T08:09:56Z</time>
      </trkpt>
      <trkpt lat="43.94752" lon="6.22177">
        <ele>600.2</ele>
        <time>2014-05-25T08:09:57Z</time>
      </trkpt>
      <trkpt lat="43.94737" lon="6.22188">
        <ele>601</ele>
        <time>2014-05-25T08:10:40Z</time>
      </trkpt>
      <trkpt lat="43.94745" lon="6.22183">
        <ele>600.8</ele>
        <time>2014-05-25T08:12:22Z</time>
      </trkpt>
      <trkpt lat="43.94745" lon="6.22183">
        <ele>600.8</ele>
        <time>2014-05-25T08:12:23Z</time>
      </trkpt>
      <trkpt lat="43.94753" lon="6.22188">
        <ele>601.7</ele>
        <time>2014-05-25T08:14:02Z</time>
      </trkpt>
      <trkpt lat="43.94768" lon="6.22196">
        <ele>600.9</ele>
        <time>2014-05-25T08:14:24Z</time>
      </trkpt>
      <trkpt lat="43.94776" lon="6.22195">
        <ele>601.2</ele>
        <time>2014-05-25T08:14:34Z</time>
      </trkpt>
      <trkpt lat="43.94781" lon="6.22185">
        <ele>602.1</ele>
        <time>2014-05-25T08:14:42Z</time>
      </trkpt>
      <trkpt lat="43.94788" lon="6.2218">
        <ele>602.4</ele>
        <time>2014-05-25T08:14:51Z</time>
      </trkpt>
      <trkpt lat="43.94797" lon="6.2218">
        <ele>602.6</ele>
        <time>2014-05-25T08:15:00Z</time>
      </trkpt>
      <trkpt lat="43.94805" lon="6.22183">
        <ele>603.6</ele>
        <time>2014-05-25T08:15:09Z</time>
      </trkpt>
      <trkpt lat="43.94806" lon="6.22183">
        <ele>603.7</ele>
        <time>2014-05-25T08:15:10Z</time>
      </trkpt>
      <trkpt lat="43.94822" lon="6.22187">
        <ele>604.1</ele>
        <time>2014-05-25T08:15:24Z</time>
      </trkpt>
      <trkpt lat="43.94825" lon="6.22197">
        <ele>604.7</ele>
        <time>2014-05-25T08:15:31Z</time>
      </trkpt>
      <trkpt lat="43.94826" lon="6.22209">
        <ele>605</ele>
        <time>2014-05-25T08:15:39Z</time>
      </trkpt>
      <trkpt lat="43.94827" lon="6.2222">
        <ele>605.3</ele>
        <time>2014-05-25T08:15:45Z</time>
      </trkpt>
      <trkpt lat="43.94823" lon="6.2223">
        <ele>605.8</ele>
        <time>2014-05-25T08:15:59Z</time>
      </trkpt>
      <trkpt lat="43.94817" lon="6.22239">
        <ele>604.1</ele>
        <time>2014-05-25T08:16:09Z</time>
      </trkpt>
      <trkpt lat="43.94811" lon="6.22247">
        <ele>603</ele>
        <time>2014-05-25T08:16:16Z</time>
      </trkpt>
      <trkpt lat="43.9481" lon="6.22247">
        <ele>602.8</ele>
        <time>2014-05-25T08:16:17Z</time>
      </trkpt>
      <trkpt lat="43.94807" lon="6.2227">
        <ele>602.4</ele>
        <time>2014-05-25T08:16:34Z</time>
      </trkpt>
      <trkpt lat="43.94806" lon="6.22281">
        <ele>601.5</ele>
        <time>2014-05-25T08:17:04Z</time>
      </trkpt>
      <trkpt lat="43.94807" lon="6.22292">
        <ele>600.9</ele>
        <time>2014-05-25T08:17:08Z</time>
      </trkpt>
      <trkpt lat="43.94806" lon="6.22304">
        <ele>600.8</ele>
        <time>2014-05-25T08:17:15Z</time>
      </trkpt>
      <trkpt lat="43.94803" lon="6.22315">
        <ele>599.1</ele>
        <time>2014-05-25T08:17:21Z</time>
      </trkpt>
      <trkpt lat="43.94803" lon="6.22316">
        <ele>598.9</ele>
        <time>2014-05-25T08:17:22Z</time>
      </trkpt>
      <trkpt lat="43.94799" lon="6.22331">
        <ele>599.1</ele>
        <time>2014-05-25T08:17:39Z</time>
      </trkpt>
      <trkpt lat="43.94802" lon="6.22341">
        <ele>598.9</ele>
        <time>2014-05-25T08:17:45Z</time>
      </trkpt>
      <trkpt lat="43.94804" lon="6.22352">
        <ele>599.2</ele>
        <time>2014-05-25T08:17:50Z</time>
      </trkpt>
      <trkpt lat="43.94805" lon="6.22363">
        <ele>598.4</ele>
        <time>2014-05-25T08:17:57Z</time>
      </trkpt>
      <trkpt lat="43.94807" lon="6.22373">
        <ele>598.9</ele>
        <time>2014-05-25T08:18:02Z</time>
      </trkpt>
      <trkpt lat="43.94809" lon="6.22384">
        <ele>598.4</ele>
        <time>2014-05-25T08:18:08Z</time>
      </trkpt>
      <trkpt lat="43.94809" lon="6.22396">
        <ele>598.1</ele>
        <time>2014-05-25T08:18:14Z</time>
      </trkpt>
      <trkpt lat="43.94809" lon="6.22407">
        <ele>598.6</ele>
        <time>2014-05-25T08:18:21Z</time>
      </trkpt>
      <trkpt lat="43.94808" lon="6.22419">
        <ele>598.9</ele>
        <time>2014-05-25T08:18:29Z</time>
      </trkpt>
      <trkpt lat="43.94808" lon="6.22421">
        <ele>598.9</ele>
        <time>2014-05-25T08:18:30Z</time>
      </trkpt>
      <trkpt lat="43.94802" lon="6.22442">
        <ele>598.2</ele>
        <time>2014-05-25T08:18:43Z</time>
      </trkpt>
      <trkpt lat="43.94802" lon="6.22454">
        <ele>598.4</ele>
        <time>2014-05-25T08:18:51Z</time>
      </trkpt>
      <trkpt lat="43.94799" lon="6.22465">
        <ele>599</ele>
        <time>2014-05-25T08:18:57Z</time>
      </trkpt>
      <trkpt lat="43.94795" lon="6.22477">
        <ele>599.3</ele>
        <time>2014-05-25T08:19:05Z</time>
      </trkpt>
      <trkpt lat="43.94791" lon="6.22487">
        <ele>599.3</ele>
        <time>2014-05-25T08:19:11Z</time>
      </trkpt>
      <trkpt lat="43.9479" lon="6.22499">
        <ele>600.5</ele>
        <time>2014-05-25T08:19:19Z</time>
      </trkpt>
      <trkpt lat="43.94784" lon="6.22508">
        <ele>600.8</ele>
        <time>2014-05-25T08:19:24Z</time>
      </trkpt>
      <trkpt lat="43.94781" lon="6.22519">
        <ele>601.4</ele>
        <time>2014-05-25T08:19:31Z</time>
      </trkpt>
      <trkpt lat="43.9478" lon="6.2252">
        <ele>601.4</ele>
        <time>2014-05-25T08:19:32Z</time>
      </trkpt>
      <trkpt lat="43.9477" lon="6.22537">
        <ele>601.5</ele>
        <time>2014-05-25T08:19:48Z</time>
      </trkpt>
      <trkpt lat="43.94764" lon="6.22545">
        <ele>601.8</ele>
        <time>2014-05-25T08:19:54Z</time>
      </trkpt>
      <trkpt lat="43.94758" lon="6.22551">
        <ele>602.5</ele>
        <time>2014-05-25T08:19:59Z</time>
      </trkpt>
      <trkpt lat="43.94751" lon="6.22558">
        <ele>602.1</ele>
        <time>2014-05-25T08:20:09Z</time>
      </trkpt>
      <trkpt lat="43.94744" lon="6.22553">
        <ele>604</ele>
        <time>2014-05-25T08:20:29Z</time>
      </trkpt>
      <trkpt lat="43.94737" lon="6.22547">
        <ele>604.7</ele>
        <time>2014-05-25T08:20:38Z</time>
      </trkpt>
      <trkpt lat="43.94736" lon="6.22548">
        <ele>605</ele>
        <time>2014-05-25T08:20:39Z</time>
      </trkpt>
      <trkpt lat="43.94722" lon="6.22555">
        <ele>604.2</ele>
        <time>2014-05-25T08:22:04Z</time>
      </trkpt>
      <trkpt lat="43.94721" lon="6.22555">
        <ele>604.5</ele>
        <time>2014-05-25T08:22:05Z</time>
      </trkpt>
      <trkpt lat="43.94715" lon="6.22576">
        <ele>604.4</ele>
        <time>2014-05-25T08:22:28Z</time>
      </trkpt>
      <trkpt lat="43.94717" lon="6.22587">
        <ele>604.9</ele>
        <time>2014-05-25T08:22:40Z</time>
      </trkpt>
      <trkpt lat="43.94713" lon="6.22598">
        <ele>604.3</ele>
        <time>2014-05-25T08:22:46Z</time>
      </trkpt>
      <trkpt lat="43.94706" lon="6.22606">
        <ele>604.1</ele>
        <time>2014-05-25T08:22:51Z</time>
      </trkpt>
      <trkpt lat="43.94702" lon="6.22616">
        <ele>605</ele>
        <time>2014-05-25T08:22:56Z</time>
      </trkpt>
      <trkpt lat="43.94699" lon="6.22627">
        <ele>604.9</ele>
        <time>2014-05-25T08:23:01Z</time>
      </trkpt>
      <trkpt lat="43.94695" lon="6.22634">
        <ele>604.3</ele>
        <time>2014-05-25T08:23:04Z</time>
      </trkpt>
      <trkpt lat="43.94691" lon="6.22646">
        <ele>603.9</ele>
        <time>2014-05-25T08:23:12Z</time>
      </trkpt>
      <trkpt lat="43.9469" lon="6.22647">
        <ele>603.4</ele>
        <time>2014-05-25T08:23:13Z</time>
      </trkpt>
      <trkpt lat="43.94677" lon="6.22656">
        <ele>603.6</ele>
        <time>2014-05-25T08:23:37Z</time>
      </trkpt>
      <trkpt lat="43.94686" lon="6.22663">
        <ele>605</ele>
        <time>2014-05-25T08:23:54Z</time>
      </trkpt>
      <trkpt lat="43.9469" lon="6.22674">
        <ele>607.1</ele>
        <time>2014-05-25T08:24:04Z</time>
      </trkpt>
      <trkpt lat="43.94696" lon="6.22676">
        <ele>608.3</ele>
        <time>2014-05-25T08:24:44Z</time>
      </trkpt>
      <trkpt lat="43.94699" lon="6.22676">
        <ele>608.1</ele>
        <time>2014-05-25T08:24:45Z</time>
      </trkpt>
      <trkpt lat="43.94712" lon="6.22685">
        <ele>607.5</ele>
        <time>2014-05-25T08:24:54Z</time>
      </trkpt>
      <trkpt lat="43.94718" lon="6.227">
        <ele>607</ele>
        <time>2014-05-25T08:25:05Z</time>
      </trkpt>
      <trkpt lat="43.94732" lon="6.22716">
        <ele>608</ele>
        <time>2014-05-25T08:25:13Z</time>
      </trkpt>
      <trkpt lat="43.94733" lon="6.22727">
        <ele>608.2</ele>
        <time>2014-05-25T08:25:19Z</time>
      </trkpt>
      <trkpt lat="43.94731" lon="6.22737">
        <ele>608.7</ele>
        <time>2014-05-25T08:25:24Z</time>
      </trkpt>
      <trkpt lat="43.94735" lon="6.22746">
        <ele>609.3</ele>
        <time>2014-05-25T08:25:43Z</time>
      </trkpt>
      <trkpt lat="43.94743" lon="6.22751">
        <ele>610.2</ele>
        <time>2014-05-25T08:25:50Z</time>
      </trkpt>
      <trkpt lat="43.94745" lon="6.22752">
        <ele>610</ele>
        <time>2014-05-25T08:25:51Z</time>
      </trkpt>
      <trkpt lat="43.94757" lon="6.22766">
        <ele>610.9</ele>
        <time>2014-05-25T08:26:04Z</time>
      </trkpt>
      <trkpt lat="43.94762" lon="6.22774">
        <ele>611.2</ele>
        <time>2014-05-25T08:26:08Z</time>
      </trkpt>
      <trkpt lat="43.94767" lon="6.22782">
        <ele>611.5</ele>
        <time>2014-05-25T08:26:11Z</time>
      </trkpt>
      <trkpt lat="43.94772" lon="6.22792">
        <ele>611.5</ele>
        <time>2014-05-25T08:26:16Z</time>
      </trkpt>
      <trkpt lat="43.94772" lon="6.22804">
        <ele>611.2</ele>
        <time>2014-05-25T08:26:24Z</time>
      </trkpt>
      <trkpt lat="43.94777" lon="6.22812">
        <ele>612.6</ele>
        <time>2014-05-25T08:26:29Z</time>
      </trkpt>
      <trkpt lat="43.94784" lon="6.22821">
        <ele>612.4</ele>
        <time>2014-05-25T08:26:36Z</time>
      </trkpt>
      <trkpt lat="43.94789" lon="6.2283">
        <ele>612.5</ele>
        <time>2014-05-25T08:26:43Z</time>
      </trkpt>
      <trkpt lat="43.94792" lon="6.22841">
        <ele>612.8</ele>
        <time>2014-05-25T08:26:52Z</time>
      </trkpt>
      <trkpt lat="43.94791" lon="6.22842">
        <ele>613.2</ele>
        <time>2014-05-25T08:26:53Z</time>
      </trkpt>
      <trkpt lat="43.94784" lon="6.22862">
        <ele>614.1</ele>
        <time>2014-05-25T08:27:06Z</time>
      </trkpt>
      <trkpt lat="43.94778" lon="6.2287">
        <ele>613.7</ele>
        <time>2014-05-25T08:27:11Z</time>
      </trkpt>
      <trkpt lat="43.94771" lon="6.22878">
        <ele>613.2</ele>
        <time>2014-05-25T08:27:19Z</time>
      </trkpt>
      <trkpt lat="43.94766" lon="6.22887">
        <ele>614</ele>
        <time>2014-05-25T08:27:25Z</time>
      </trkpt>
      <trkpt lat="43.94763" lon="6.22898">
        <ele>614.6</ele>
        <time>2014-05-25T08:27:32Z</time>
      </trkpt>
      <trkpt lat="43.94759" lon="6.22908">
        <ele>614.8</ele>
        <time>2014-05-25T08:27:39Z</time>
      </trkpt>
      <trkpt lat="43.94754" lon="6.22918">
        <ele>615.4</ele>
        <time>2014-05-25T08:27:45Z</time>
      </trkpt>
      <trkpt lat="43.9475" lon="6.22928">
        <ele>615.9</ele>
        <time>2014-05-25T08:27:52Z</time>
      </trkpt>
      <trkpt lat="43.94748" lon="6.22939">
        <ele>616.1</ele>
        <time>2014-05-25T08:27:59Z</time>
      </trkpt>
      <trkpt lat="43.94747" lon="6.2294">
        <ele>616.4</ele>
        <time>2014-05-25T08:28:00Z</time>
      </trkpt>
      <trkpt lat="43.94743" lon="6.22962">
        <ele>617.6</ele>
        <time>2014-05-25T08:28:14Z</time>
      </trkpt>
      <trkpt lat="43.94739" lon="6.22972">
        <ele>617.8</ele>
        <time>2014-05-25T08:28:21Z</time>
      </trkpt>
      <trkpt lat="43.94736" lon="6.22982">
        <ele>618.4</ele>
        <time>2014-05-25T08:28:26Z</time>
      </trkpt>
      <trkpt lat="43.94737" lon="6.22994">
        <ele>618.5</ele>
        <time>2014-05-25T08:28:33Z</time>
      </trkpt>
      <trkpt lat="43.94733" lon="6.23003">
        <ele>620.2</ele>
        <time>2014-05-25T08:28:42Z</time>
      </trkpt>
      <trkpt lat="43.94733" lon="6.23013">
        <ele>619</ele>
        <time>2014-05-25T08:28:49Z</time>
      </trkpt>
      <trkpt lat="43.94734" lon="6.23022">
        <ele>620</ele>
        <time>2014-05-25T08:28:54Z</time>
      </trkpt>
      <trkpt lat="43.94736" lon="6.23036">
        <ele>620.8</ele>
        <time>2014-05-25T08:29:00Z</time>
      </trkpt>
      <trkpt lat="43.94741" lon="6.2305">
        <ele>621.2</ele>
        <time>2014-05-25T08:29:01Z</time>
      </trkpt>
      <trkpt lat="43.94745" lon="6.23055">
        <ele>621</ele>
        <time>2014-05-25T08:29:22Z</time>
      </trkpt>
      <trkpt lat="43.94752" lon="6.23067">
        <ele>622</ele>
        <time>2014-05-25T08:29:26Z</time>
      </trkpt>
      <trkpt lat="43.9475" lon="6.23087">
        <ele>622</ele>
        <time>2014-05-25T08:29:38Z</time>
      </trkpt>
      <trkpt lat="43.94748" lon="6.23097">
        <ele>623</ele>
        <time>2014-05-25T08:29:42Z</time>
      </trkpt>
      <trkpt lat="43.94745" lon="6.23113">
        <ele>622</ele>
        <time>2014-05-25T08:29:50Z</time>
      </trkpt>
      <trkpt lat="43.94743" lon="6.23127">
        <ele>622</ele>
        <time>2014-05-25T08:29:54Z</time>
      </trkpt>
      <trkpt lat="43.94742" lon="6.23139">
        <ele>622</ele>
        <time>2014-05-25T08:29:58Z</time>
      </trkpt>
      <trkpt lat="43.94741" lon="6.23154">
        <ele>622</ele>
        <time>2014-05-25T08:30:34Z</time>
      </trkpt>
      <trkpt lat="43.94741" lon="6.23163">
        <ele>622</ele>
        <time>2014-05-25T08:30:42Z</time>
      </trkpt>
      <trkpt lat="43.94741" lon="6.23172">
        <ele>622.3</ele>
        <time>2014-05-25T08:30:46Z</time>
      </trkpt>
      <trkpt lat="43.94747" lon="6.23174">
        <ele>622.7</ele>
        <time>2014-05-25T08:30:48Z</time>
      </trkpt>
      <trkpt lat="43.94745" lon="6.23185">
        <ele>622.1</ele>
        <time>2014-05-25T08:30:56Z</time>
      </trkpt>
      <trkpt lat="43.94738" lon="6.2319">
        <ele>622</ele>
        <time>2014-05-25T08:30:59Z</time>
      </trkpt>
      <trkpt lat="43.94734" lon="6.23201">
        <ele>621.7</ele>
        <time>2014-05-25T08:31:05Z</time>
      </trkpt>
      <trkpt lat="43.94725" lon="6.23202">
        <ele>622.7</ele>
        <time>2014-05-25T08:31:23Z</time>
      </trkpt>
      <trkpt lat="43.94724" lon="6.23201">
        <ele>622.7</ele>
        <time>2014-05-25T08:31:24Z</time>
      </trkpt>
      <trkpt lat="43.94708" lon="6.23207">
        <ele>624</ele>
        <time>2014-05-25T08:31:37Z</time>
      </trkpt>
      <trkpt lat="43.94703" lon="6.23215">
        <ele>624.6</ele>
        <time>2014-05-25T08:31:46Z</time>
      </trkpt>
      <trkpt lat="43.94695" lon="6.23213">
        <ele>621.1</ele>
        <time>2014-05-25T08:31:57Z</time>
      </trkpt>
      <trkpt lat="43.94696" lon="6.23226">
        <ele>621</ele>
        <time>2014-05-25T08:32:45Z</time>
      </trkpt>
      <trkpt lat="43.94696" lon="6.23226">
        <ele>621.2</ele>
        <time>2014-05-25T08:32:46Z</time>
      </trkpt>
      <trkpt lat="43.94695" lon="6.23248">
        <ele>622.3</ele>
        <time>2014-05-25T08:33:02Z</time>
      </trkpt>
      <trkpt lat="43.94692" lon="6.23258">
        <ele>623.2</ele>
        <time>2014-05-25T08:33:10Z</time>
      </trkpt>
      <trkpt lat="43.94686" lon="6.23266">
        <ele>623.8</ele>
        <time>2014-05-25T08:33:15Z</time>
      </trkpt>
      <trkpt lat="43.94679" lon="6.23271">
        <ele>623.5</ele>
        <time>2014-05-25T08:33:22Z</time>
      </trkpt>
      <trkpt lat="43.94672" lon="6.23277">
        <ele>624.4</ele>
        <time>2014-05-25T08:33:28Z</time>
      </trkpt>
      <trkpt lat="43.94673" lon="6.23289">
        <ele>624.9</ele>
        <time>2014-05-25T08:33:59Z</time>
      </trkpt>
      <trkpt lat="43.94672" lon="6.2329">
        <ele>624.9</ele>
        <time>2014-05-25T08:34:00Z</time>
      </trkpt>
      <trkpt lat="43.94673" lon="6.23296">
        <ele>624.3</ele>
        <time>2014-05-25T08:35:08Z</time>
      </trkpt>
      <trkpt lat="43.94672" lon="6.23296">
        <ele>624.3</ele>
        <time>2014-05-25T08:35:09Z</time>
      </trkpt>
      <trkpt lat="43.94675" lon="6.23304">
        <ele>627.7</ele>
        <time>2014-05-25T08:36:34Z</time>
      </trkpt>
      <trkpt lat="43.94675" lon="6.23312">
        <ele>624.2</ele>
        <time>2014-05-25T08:36:56Z</time>
      </trkpt>
      <trkpt lat="43.9468" lon="6.23323">
        <ele>622.7</ele>
        <time>2014-05-25T08:37:34Z</time>
      </trkpt>
      <trkpt lat="43.94686" lon="6.23334">
        <ele>627</ele>
        <time>2014-05-25T08:38:48Z</time>
      </trkpt>
      <trkpt lat="43.94686" lon="6.23334">
        <ele>628.6</ele>
        <time>2014-05-25T08:38:50Z</time>
      </trkpt>
      <trkpt lat="43.94704" lon="6.23341">
        <ele>632.1</ele>
        <time>2014-05-25T08:39:21Z</time>
      </trkpt>
      <trkpt lat="43.94713" lon="6.23342">
        <ele>632.6</ele>
        <time>2014-05-25T08:39:28Z</time>
      </trkpt>
      <trkpt lat="43.94721" lon="6.23343">
        <ele>633</ele>
        <time>2014-05-25T08:39:34Z</time>
      </trkpt>
      <trkpt lat="43.9472" lon="6.23356">
        <ele>638.6</ele>
        <time>2014-05-25T08:41:50Z</time>
      </trkpt>
      <trkpt lat="43.94721" lon="6.23357">
        <ele>638.4</ele>
        <time>2014-05-25T08:41:51Z</time>
      </trkpt>
      <trkpt lat="43.94727" lon="6.23377">
        <ele>646</ele>
        <time>2014-05-25T08:42:37Z</time>
      </trkpt>
      <trkpt lat="43.94732" lon="6.23391">
        <ele>648</ele>
        <time>2014-05-25T08:43:12Z</time>
      </trkpt>
      <trkpt lat="43.94734" lon="6.23393">
        <ele>648.7</ele>
        <time>2014-05-25T08:43:14Z</time>
      </trkpt>
      <trkpt lat="43.94727" lon="6.23404">
        <ele>652.6</ele>
        <time>2014-05-25T08:43:42Z</time>
      </trkpt>
      <trkpt lat="43.94718" lon="6.23404">
        <ele>652</ele>
        <time>2014-05-25T08:43:49Z</time>
      </trkpt>
      <trkpt lat="43.94728" lon="6.23413">
        <ele>656</ele>
        <time>2014-05-25T08:44:14Z</time>
      </trkpt>
      <trkpt lat="43.9473" lon="6.23415">
        <ele>656.7</ele>
        <time>2014-05-25T08:44:16Z</time>
      </trkpt>
      <trkpt lat="43.9472" lon="6.23431">
        <ele>666.7</ele>
        <time>2014-05-25T08:45:20Z</time>
      </trkpt>
      <trkpt lat="43.9472" lon="6.23431">
        <ele>666.7</ele>
        <time>2014-05-25T08:45:21Z</time>
      </trkpt>
      <trkpt lat="43.94732" lon="6.23445">
        <ele>670.5</ele>
        <time>2014-05-25T08:45:50Z</time>
      </trkpt>
      <trkpt lat="43.94745" lon="6.23448">
        <ele>671</ele>
        <time>2014-05-25T08:45:56Z</time>
      </trkpt>
      <trkpt lat="43.94752" lon="6.23449">
        <ele>672.2</ele>
        <time>2014-05-25T08:46:00Z</time>
      </trkpt>
      <trkpt lat="43.94759" lon="6.23453">
        <ele>672.9</ele>
        <time>2014-05-25T08:46:04Z</time>
      </trkpt>
      <trkpt lat="43.94759" lon="6.23464">
        <ele>674.4</ele>
        <time>2014-05-25T08:46:13Z</time>
      </trkpt>
      <trkpt lat="43.94752" lon="6.23468">
        <ele>675</ele>
        <time>2014-05-25T08:46:16Z</time>
      </trkpt>
      <trkpt lat="43.94745" lon="6.23474">
        <ele>675.6</ele>
        <time>2014-05-25T08:46:22Z</time>
      </trkpt>
      <trkpt lat="43.94743" lon="6.23475">
        <ele>675.3</ele>
        <time>2014-05-25T08:46:23Z</time>
      </trkpt>
      <trkpt lat="43.9474" lon="6.23492">
        <ele>681.2</ele>
        <time>2014-05-25T08:46:48Z</time>
      </trkpt>
      <trkpt lat="43.9474" lon="6.23503">
        <ele>686.2</ele>
        <time>2014-05-25T08:47:15Z</time>
      </trkpt>
      <trkpt lat="43.94743" lon="6.23514">
        <ele>687.8</ele>
        <time>2014-05-25T08:47:27Z</time>
      </trkpt>
      <trkpt lat="43.94744" lon="6.23515">
        <ele>687.6</ele>
        <time>2014-05-25T08:47:28Z</time>
      </trkpt>
      <trkpt lat="43.9475" lon="6.23523">
        <ele>688.2</ele>
        <time>2014-05-25T08:48:59Z</time>
      </trkpt>
      <trkpt lat="43.94743" lon="6.23531">
        <ele>688.1</ele>
        <time>2014-05-25T08:50:04Z</time>
      </trkpt>
      <trkpt lat="43.94748" lon="6.23552">
        <ele>687.9</ele>
        <time>2014-05-25T08:50:37Z</time>
      </trkpt>
      <trkpt lat="43.94753" lon="6.23562">
        <ele>689.5</ele>
        <time>2014-05-25T08:50:51Z</time>
      </trkpt>
      <trkpt lat="43.94749" lon="6.23573">
        <ele>692.6</ele>
        <time>2014-05-25T08:51:07Z</time>
      </trkpt>
      <trkpt lat="43.94749" lon="6.23573">
        <ele>692.3</ele>
        <time>2014-05-25T08:51:08Z</time>
      </trkpt>
      <trkpt lat="43.94741" lon="6.23591">
        <ele>692.9</ele>
        <time>2014-05-25T08:51:31Z</time>
      </trkpt>
      <trkpt lat="43.94744" lon="6.23602">
        <ele>693.5</ele>
        <time>2014-05-25T08:51:38Z</time>
      </trkpt>
      <trkpt lat="43.94747" lon="6.23614">
        <ele>693.1</ele>
        <time>2014-05-25T08:51:47Z</time>
      </trkpt>
      <trkpt lat="43.94743" lon="6.23625">
        <ele>693.8</ele>
        <time>2014-05-25T08:52:00Z</time>
      </trkpt>
      <trkpt lat="43.94745" lon="6.23637">
        <ele>693.9</ele>
        <time>2014-05-25T08:52:52Z</time>
      </trkpt>
      <trkpt lat="43.94746" lon="6.23638">
        <ele>693.2</ele>
        <time>2014-05-25T08:52:53Z</time>
      </trkpt>
      <trkpt lat="43.94753" lon="6.23658">
        <ele>694.1</ele>
        <time>2014-05-25T08:53:20Z</time>
      </trkpt>
      <trkpt lat="43.94757" lon="6.23668">
        <ele>692.6</ele>
        <time>2014-05-25T08:53:47Z</time>
      </trkpt>
      <trkpt lat="43.94761" lon="6.23679">
        <ele>689.8</ele>
        <time>2014-05-25T08:53:58Z</time>
      </trkpt>
      <trkpt lat="43.94761" lon="6.2368">
        <ele>689.6</ele>
        <time>2014-05-25T08:53:59Z</time>
      </trkpt>
      <trkpt lat="43.94773" lon="6.23697">
        <ele>687.2</ele>
        <time>2014-05-25T08:54:49Z</time>
      </trkpt>
      <trkpt lat="43.94779" lon="6.23706">
        <ele>684.3</ele>
        <time>2014-05-25T08:55:01Z</time>
      </trkpt>
      <trkpt lat="43.9478" lon="6.23706">
        <ele>684.2</ele>
        <time>2014-05-25T08:55:02Z</time>
      </trkpt>
      <trkpt lat="43.9478" lon="6.23729">
        <ele>677.6</ele>
        <time>2014-05-25T08:55:27Z</time>
      </trkpt>
      <trkpt lat="43.9478" lon="6.23741">
        <ele>676.1</ele>
        <time>2014-05-25T08:55:40Z</time>
      </trkpt>
      <trkpt lat="43.94779" lon="6.23753">
        <ele>674.6</ele>
        <time>2014-05-25T08:55:58Z</time>
      </trkpt>
      <trkpt lat="43.9478" lon="6.23765">
        <ele>669.7</ele>
        <time>2014-05-25T08:56:17Z</time>
      </trkpt>
      <trkpt lat="43.94781" lon="6.23766">
        <ele>669.9</ele>
        <time>2014-05-25T08:56:18Z</time>
      </trkpt>
      <trkpt lat="43.94786" lon="6.23785">
        <ele>664.4</ele>
        <time>2014-05-25T08:56:51Z</time>
      </trkpt>
      <trkpt lat="43.94787" lon="6.23797">
        <ele>662.7</ele>
        <time>2014-05-25T08:57:00Z</time>
      </trkpt>
      <trkpt lat="43.94788" lon="6.23809">
        <ele>660.8</ele>
        <time>2014-05-25T08:57:16Z</time>
      </trkpt>
      <trkpt lat="43.94796" lon="6.23815">
        <ele>658.7</ele>
        <time>2014-05-25T08:57:30Z</time>
      </trkpt>
      <trkpt lat="43.94796" lon="6.23815">
        <ele>658.5</ele>
        <time>2014-05-25T08:57:31Z</time>
      </trkpt>
      <trkpt lat="43.94806" lon="6.23834">
        <ele>653.9</ele>
        <time>2014-05-25T08:58:06Z</time>
      </trkpt>
      <trkpt lat="43.94808" lon="6.23846">
        <ele>652.9</ele>
        <time>2014-05-25T08:58:21Z</time>
      </trkpt>
      <trkpt lat="43.94805" lon="6.23858">
        <ele>646.9</ele>
        <time>2014-05-25T08:59:30Z</time>
      </trkpt>
      <trkpt lat="43.94805" lon="6.23858">
        <ele>646.5</ele>
        <time>2014-05-25T08:59:31Z</time>
      </trkpt>
      <trkpt lat="43.948" lon="6.23878">
        <ele>646.8</ele>
        <time>2014-05-25T08:59:50Z</time>
      </trkpt>
      <trkpt lat="43.94799" lon="6.2389">
        <ele>647.3</ele>
        <time>2014-05-25T09:00:02Z</time>
      </trkpt>
      <trkpt lat="43.94801" lon="6.23902">
        <ele>646.7</ele>
        <time>2014-05-25T09:00:30Z</time>
      </trkpt>
      <trkpt lat="43.94795" lon="6.23909">
        <ele>648.4</ele>
        <time>2014-05-25T09:01:02Z</time>
      </trkpt>
      <trkpt lat="43.94794" lon="6.2391">
        <ele>648.1</ele>
        <time>2014-05-25T09:01:03Z</time>
      </trkpt>
      <trkpt lat="43.948" lon="6.23888">
        <ele>650.8</ele>
        <time>2014-05-25T09:01:35Z</time>
      </trkpt>
      <trkpt lat="43.94792" lon="6.23883">
        <ele>652.1</ele>
        <time>2014-05-25T09:01:54Z</time>
      </trkpt>
      <trkpt lat="43.94784" lon="6.23877">
        <ele>652.9</ele>
        <time>2014-05-25T09:02:06Z</time>
      </trkpt>
      <trkpt lat="43.94783" lon="6.23876">
        <ele>652.9</ele>
        <time>2014-05-25T09:02:07Z</time>
      </trkpt>
      <trkpt lat="43.94768" lon="6.23868">
        <ele>655.8</ele>
        <time>2014-05-25T09:02:22Z</time>
      </trkpt>
      <trkpt lat="43.9476" lon="6.23865">
        <ele>656.6</ele>
        <time>2014-05-25T09:02:29Z</time>
      </trkpt>
      <trkpt lat="43.94752" lon="6.23863">
        <ele>657</ele>
        <time>2014-05-25T09:02:39Z</time>
      </trkpt>
      <trkpt lat="43.94744" lon="6.23857">
        <ele>658.5</ele>
        <time>2014-05-25T09:02:47Z</time>
      </trkpt>
      <trkpt lat="43.94736" lon="6.23855">
        <ele>659.2</ele>
        <time>2014-05-25T09:02:52Z</time>
      </trkpt>
      <trkpt lat="43.94733" lon="6.23844">
        <ele>659.6</ele>
        <time>2014-05-25T09:02:59Z</time>
      </trkpt>
      <trkpt lat="43.94726" lon="6.23836">
        <ele>662</ele>
        <time>2014-05-25T09:03:14Z</time>
      </trkpt>
      <trkpt lat="43.94724" lon="6.23836">
        <ele>662.6</ele>
        <time>2014-05-25T09:03:16Z</time>
      </trkpt>
      <trkpt lat="43.94715" lon="6.23819">
        <ele>666</ele>
        <time>2014-05-25T09:04:07Z</time>
      </trkpt>
      <trkpt lat="43.94708" lon="6.23812">
        <ele>667.8</ele>
        <time>2014-05-25T09:04:17Z</time>
      </trkpt>
      <trkpt lat="43.94706" lon="6.23812">
        <ele>667.1</ele>
        <time>2014-05-25T09:04:18Z</time>
      </trkpt>
      <trkpt lat="43.94699" lon="6.23794">
        <ele>670.4</ele>
        <time>2014-05-25T09:04:41Z</time>
      </trkpt>
      <trkpt lat="43.94702" lon="6.23783">
        <ele>671.5</ele>
        <time>2014-05-25T09:04:51Z</time>
      </trkpt>
      <trkpt lat="43.94696" lon="6.23775">
        <ele>672</ele>
        <time>2014-05-25T09:04:59Z</time>
      </trkpt>
      <trkpt lat="43.94689" lon="6.23772">
        <ele>673.1</ele>
        <time>2014-05-25T09:05:06Z</time>
      </trkpt>
      <trkpt lat="43.94685" lon="6.23762">
        <ele>674.4</ele>
        <time>2014-05-25T09:05:18Z</time>
      </trkpt>
      <trkpt lat="43.94684" lon="6.2376">
        <ele>674.3</ele>
        <time>2014-05-25T09:05:19Z</time>
      </trkpt>
      <trkpt lat="43.94673" lon="6.23746">
        <ele>675.9</ele>
        <time>2014-05-25T09:05:33Z</time>
      </trkpt>
      <trkpt lat="43.94668" lon="6.23735">
        <ele>676.6</ele>
        <time>2014-05-25T09:05:42Z</time>
      </trkpt>
      <trkpt lat="43.94664" lon="6.23724">
        <ele>678.7</ele>
        <time>2014-05-25T09:05:54Z</time>
      </trkpt>
      <trkpt lat="43.94658" lon="6.23715">
        <ele>680.4</ele>
        <time>2014-05-25T09:06:11Z</time>
      </trkpt>
      <trkpt lat="43.94651" lon="6.23709">
        <ele>681.3</ele>
        <time>2014-05-25T09:06:19Z</time>
      </trkpt>
      <trkpt lat="43.9465" lon="6.23708">
        <ele>681.4</ele>
        <time>2014-05-25T09:06:20Z</time>
      </trkpt>
      <trkpt lat="43.94647" lon="6.23688">
        <ele>685</ele>
        <time>2014-05-25T09:06:50Z</time>
      </trkpt>
      <trkpt lat="43.94649" lon="6.23676">
        <ele>687.6</ele>
        <time>2014-05-25T09:07:08Z</time>
      </trkpt>
      <trkpt lat="43.94652" lon="6.23665">
        <ele>688.5</ele>
        <time>2014-05-25T09:07:19Z</time>
      </trkpt>
      <trkpt lat="43.94651" lon="6.23654">
        <ele>690</ele>
        <time>2014-05-25T09:07:29Z</time>
      </trkpt>
      <trkpt lat="43.94651" lon="6.23652">
        <ele>690.1</ele>
        <time>2014-05-25T09:07:30Z</time>
      </trkpt>
      <trkpt lat="43.94648" lon="6.23633">
        <ele>693.6</ele>
        <time>2014-05-25T09:07:54Z</time>
      </trkpt>
      <trkpt lat="43.9464" lon="6.23632">
        <ele>694.8</ele>
        <time>2014-05-25T09:08:02Z</time>
      </trkpt>
      <trkpt lat="43.94631" lon="6.23634">
        <ele>696.8</ele>
        <time>2014-05-25T09:08:18Z</time>
      </trkpt>
      <trkpt lat="43.94625" lon="6.23643">
        <ele>698.4</ele>
        <time>2014-05-25T09:08:32Z</time>
      </trkpt>
      <trkpt lat="43.94625" lon="6.23643">
        <ele>698.6</ele>
        <time>2014-05-25T09:08:33Z</time>
      </trkpt>
      <trkpt lat="43.9461" lon="6.23652">
        <ele>701.1</ele>
        <time>2014-05-25T09:08:56Z</time>
      </trkpt>
      <trkpt lat="43.94602" lon="6.23656">
        <ele>702.9</ele>
        <time>2014-05-25T09:09:14Z</time>
      </trkpt>
      <trkpt lat="43.94593" lon="6.23658">
        <ele>704.3</ele>
        <time>2014-05-25T09:09:25Z</time>
      </trkpt>
      <trkpt lat="43.94587" lon="6.23667">
        <ele>705</ele>
        <time>2014-05-25T09:09:36Z</time>
      </trkpt>
      <trkpt lat="43.94586" lon="6.23668">
        <ele>705.8</ele>
        <time>2014-05-25T09:09:38Z</time>
      </trkpt>
      <trkpt lat="43.94579" lon="6.23688">
        <ele>707.4</ele>
        <time>2014-05-25T09:09:57Z</time>
      </trkpt>
      <trkpt lat="43.94578" lon="6.237">
        <ele>708.5</ele>
        <time>2014-05-25T09:10:05Z</time>
      </trkpt>
      <trkpt lat="43.94581" lon="6.23712">
        <ele>711.1</ele>
        <time>2014-05-25T09:10:20Z</time>
      </trkpt>
      <trkpt lat="43.94573" lon="6.23708">
        <ele>711.6</ele>
        <time>2014-05-25T09:10:42Z</time>
      </trkpt>
      <trkpt lat="43.94572" lon="6.23707">
        <ele>711.6</ele>
        <time>2014-05-25T09:10:43Z</time>
      </trkpt>
      <trkpt lat="43.94557" lon="6.23719">
        <ele>715.2</ele>
        <time>2014-05-25T09:11:24Z</time>
      </trkpt>
      <trkpt lat="43.94548" lon="6.2372">
        <ele>715.8</ele>
        <time>2014-05-25T09:11:32Z</time>
      </trkpt>
      <trkpt lat="43.9454" lon="6.23722">
        <ele>717.2</ele>
        <time>2014-05-25T09:11:40Z</time>
      </trkpt>
      <trkpt lat="43.94531" lon="6.23722">
        <ele>719.1</ele>
        <time>2014-05-25T09:11:51Z</time>
      </trkpt>
      <trkpt lat="43.94531" lon="6.23723">
        <ele>719</ele>
        <time>2014-05-25T09:11:52Z</time>
      </trkpt>
      <trkpt lat="43.94515" lon="6.23749">
        <ele>723</ele>
        <time>2014-05-25T09:12:29Z</time>
      </trkpt>
      <trkpt lat="43.94505" lon="6.23749">
        <ele>724</ele>
        <time>2014-05-25T09:12:37Z</time>
      </trkpt>
      <trkpt lat="43.94494" lon="6.23739">
        <ele>725</ele>
        <time>2014-05-25T09:12:45Z</time>
      </trkpt>
      <trkpt lat="43.94483" lon="6.23736">
        <ele>727</ele>
        <time>2014-05-25T09:13:01Z</time>
      </trkpt>
      <trkpt lat="43.94482" lon="6.23737">
        <ele>727.9</ele>
        <time>2014-05-25T09:13:03Z</time>
      </trkpt>
      <trkpt lat="43.94461" lon="6.23726">
        <ele>729</ele>
        <time>2014-05-25T09:13:24Z</time>
      </trkpt>
      <trkpt lat="43.94455" lon="6.23741">
        <ele>730</ele>
        <time>2014-05-25T09:13:48Z</time>
      </trkpt>
      <trkpt lat="43.94443" lon="6.23745">
        <ele>732</ele>
        <time>2014-05-25T09:14:04Z</time>
      </trkpt>
      <trkpt lat="43.94441" lon="6.23744">
        <ele>733.1</ele>
        <time>2014-05-25T09:14:07Z</time>
      </trkpt>
      <trkpt lat="43.94443" lon="6.23788">
        <ele>732</ele>
        <time>2014-05-25T09:14:38Z</time>
      </trkpt>
      <trkpt lat="43.94437" lon="6.23802">
        <ele>733</ele>
        <time>2014-05-25T09:14:56Z</time>
      </trkpt>
      <trkpt lat="43.9443" lon="6.23809">
        <ele>734</ele>
        <time>2014-05-25T09:15:17Z</time>
      </trkpt>
      <trkpt lat="43.94427" lon="6.23808">
        <ele>735.3</ele>
        <time>2014-05-25T09:15:19Z</time>
      </trkpt>
      <trkpt lat="43.9441" lon="6.23805">
        <ele>734</ele>
        <time>2014-05-25T09:15:41Z</time>
      </trkpt>
      <trkpt lat="43.94401" lon="6.23814">
        <ele>735</ele>
        <time>2014-05-25T09:15:53Z</time>
      </trkpt>
      <trkpt lat="43.94387" lon="6.23818">
        <ele>735</ele>
        <time>2014-05-25T09:16:05Z</time>
      </trkpt>
      <trkpt lat="43.94379" lon="6.23827">
        <ele>735</ele>
        <time>2014-05-25T09:16:13Z</time>
      </trkpt>
      <trkpt lat="43.94372" lon="6.23838">
        <ele>736</ele>
        <time>2014-05-25T09:16:25Z</time>
      </trkpt>
      <trkpt lat="43.94371" lon="6.23839">
        <ele>736.9</ele>
        <time>2014-05-25T09:16:27Z</time>
      </trkpt>
      <trkpt lat="43.94352" lon="6.23853">
        <ele>741</ele>
        <time>2014-05-25T09:17:34Z</time>
      </trkpt>
      <trkpt lat="43.9435" lon="6.23853">
        <ele>742.1</ele>
        <time>2014-05-25T09:17:36Z</time>
      </trkpt>
      <trkpt lat="43.94333" lon="6.23861">
        <ele>742</ele>
        <time>2014-05-25T09:17:50Z</time>
      </trkpt>
      <trkpt lat="43.94331" lon="6.23874">
        <ele>742</ele>
        <time>2014-05-25T09:17:57Z</time>
      </trkpt>
      <trkpt lat="43.94334" lon="6.23884">
        <ele>743.9</ele>
        <time>2014-05-25T09:18:09Z</time>
      </trkpt>
      <trkpt lat="43.94334" lon="6.23897">
        <ele>742.2</ele>
        <time>2014-05-25T09:18:16Z</time>
      </trkpt>
      <trkpt lat="43.94337" lon="6.23909">
        <ele>742.3</ele>
        <time>2014-05-25T09:18:22Z</time>
      </trkpt>
      <trkpt lat="43.94335" lon="6.23921">
        <ele>741.9</ele>
        <time>2014-05-25T09:18:28Z</time>
      </trkpt>
      <trkpt lat="43.94337" lon="6.23931">
        <ele>741.4</ele>
        <time>2014-05-25T09:18:35Z</time>
      </trkpt>
      <trkpt lat="43.94345" lon="6.23936">
        <ele>742.3</ele>
        <time>2014-05-25T09:18:42Z</time>
      </trkpt>
      <trkpt lat="43.94346" lon="6.23937">
        <ele>742.2</ele>
        <time>2014-05-25T09:18:43Z</time>
      </trkpt>
      <trkpt lat="43.94348" lon="6.23953">
        <ele>745.8</ele>
        <time>2014-05-25T09:19:27Z</time>
      </trkpt>
      <trkpt lat="43.94342" lon="6.23961">
        <ele>747.3</ele>
        <time>2014-05-25T09:19:39Z</time>
      </trkpt>
      <trkpt lat="43.94334" lon="6.23966">
        <ele>749.4</ele>
        <time>2014-05-25T09:19:53Z</time>
      </trkpt>
      <trkpt lat="43.94333" lon="6.23966">
        <ele>750.2</ele>
        <time>2014-05-25T09:19:54Z</time>
      </trkpt>
      <trkpt lat="43.94323" lon="6.23995">
        <ele>751</ele>
        <time>2014-05-25T09:20:15Z</time>
      </trkpt>
      <trkpt lat="43.94323" lon="6.2401">
        <ele>753</ele>
        <time>2014-05-25T09:20:27Z</time>
      </trkpt>
      <trkpt lat="43.94315" lon="6.24022">
        <ele>754</ele>
        <time>2014-05-25T09:20:41Z</time>
      </trkpt>
      <trkpt lat="43.94311" lon="6.24035">
        <ele>755</ele>
        <time>2014-05-25T09:20:53Z</time>
      </trkpt>
      <trkpt lat="43.9431" lon="6.24036">
        <ele>756</ele>
        <time>2014-05-25T09:20:55Z</time>
      </trkpt>
      <trkpt lat="43.94296" lon="6.24047">
        <ele>758</ele>
        <time>2014-05-25T09:21:17Z</time>
      </trkpt>
      <trkpt lat="43.94288" lon="6.24058">
        <ele>759</ele>
        <time>2014-05-25T09:21:29Z</time>
      </trkpt>
      <trkpt lat="43.94281" lon="6.24069">
        <ele>760</ele>
        <time>2014-05-25T09:21:41Z</time>
      </trkpt>
      <trkpt lat="43.9427" lon="6.24077">
        <ele>762</ele>
        <time>2014-05-25T09:21:53Z</time>
      </trkpt>
      <trkpt lat="43.94261" lon="6.24076">
        <ele>762</ele>
        <time>2014-05-25T09:22:01Z</time>
      </trkpt>
      <trkpt lat="43.94261" lon="6.24077">
        <ele>763.1</ele>
        <time>2014-05-25T09:22:03Z</time>
      </trkpt>
      <trkpt lat="43.94239" lon="6.24079">
        <ele>765</ele>
        <time>2014-05-25T09:22:29Z</time>
      </trkpt>
      <trkpt lat="43.94229" lon="6.2408">
        <ele>766</ele>
        <time>2014-05-25T09:22:37Z</time>
      </trkpt>
      <trkpt lat="43.94218" lon="6.24081">
        <ele>767</ele>
        <time>2014-05-25T09:22:49Z</time>
      </trkpt>
      <trkpt lat="43.94208" lon="6.24085">
        <ele>768</ele>
        <time>2014-05-25T09:22:57Z</time>
      </trkpt>
      <trkpt lat="43.94198" lon="6.24088">
        <ele>770</ele>
        <time>2014-05-25T09:23:17Z</time>
      </trkpt>
      <trkpt lat="43.94196" lon="6.24088">
        <ele>770.5</ele>
        <time>2014-05-25T09:23:19Z</time>
      </trkpt>
      <trkpt lat="43.94175" lon="6.24091">
        <ele>773</ele>
        <time>2014-05-25T09:23:45Z</time>
      </trkpt>
      <trkpt lat="43.94165" lon="6.24091">
        <ele>773</ele>
        <time>2014-05-25T09:23:53Z</time>
      </trkpt>
      <trkpt lat="43.94169" lon="6.24104">
        <ele>774</ele>
        <time>2014-05-25T09:24:07Z</time>
      </trkpt>
      <trkpt lat="43.94162" lon="6.24093">
        <ele>773</ele>
        <time>2014-05-25T09:24:49Z</time>
      </trkpt>
      <trkpt lat="43.94161" lon="6.24094">
        <ele>773.9</ele>
        <time>2014-05-25T09:24:52Z</time>
      </trkpt>
      <trkpt lat="43.94163" lon="6.24084">
        <ele>774</ele>
        <time>2014-05-25T09:25:22Z</time>
      </trkpt>
      <trkpt lat="43.94152" lon="6.24084">
        <ele>775</ele>
        <time>2014-05-25T09:25:34Z</time>
      </trkpt>
      <trkpt lat="43.94139" lon="6.24079">
        <ele>775</ele>
        <time>2014-05-25T09:25:46Z</time>
      </trkpt>
      <trkpt lat="43.94131" lon="6.2409">
        <ele>777</ele>
        <time>2014-05-25T09:25:59Z</time>
      </trkpt>
      <trkpt lat="43.9413" lon="6.24093">
        <ele>777.5</ele>
        <time>2014-05-25T09:26:01Z</time>
      </trkpt>
      <trkpt lat="43.94118" lon="6.24109">
        <ele>779</ele>
        <time>2014-05-25T09:26:23Z</time>
      </trkpt>
      <trkpt lat="43.94106" lon="6.24112">
        <ele>780</ele>
        <time>2014-05-25T09:26:39Z</time>
      </trkpt>
      <trkpt lat="43.94097" lon="6.24117">
        <ele>781</ele>
        <time>2014-05-25T09:26:51Z</time>
      </trkpt>
      <trkpt lat="43.94093" lon="6.24133">
        <ele>782</ele>
        <time>2014-05-25T09:26:59Z</time>
      </trkpt>
      <trkpt lat="43.94085" lon="6.24142">
        <ele>784</ele>
        <time>2014-05-25T09:27:07Z</time>
      </trkpt>
      <trkpt lat="43.94085" lon="6.24143">
        <ele>784.5</ele>
        <time>2014-05-25T09:27:09Z</time>
      </trkpt>
      <trkpt lat="43.94072" lon="6.24165">
        <ele>787</ele>
        <time>2014-05-25T09:27:31Z</time>
      </trkpt>
      <trkpt lat="43.94067" lon="6.24179">
        <ele>787</ele>
        <time>2014-05-25T09:27:39Z</time>
      </trkpt>
      <trkpt lat="43.94057" lon="6.24178">
        <ele>788</ele>
        <time>2014-05-25T09:27:47Z</time>
      </trkpt>
      <trkpt lat="43.94046" lon="6.24175">
        <ele>790</ele>
        <time>2014-05-25T09:27:59Z</time>
      </trkpt>
      <trkpt lat="43.94037" lon="6.24175">
        <ele>792</ele>
        <time>2014-05-25T09:28:15Z</time>
      </trkpt>
      <trkpt lat="43.94037" lon="6.24178">
        <ele>792.7</ele>
        <time>2014-05-25T09:28:17Z</time>
      </trkpt>
      <trkpt lat="43.94036" lon="6.24199">
        <ele>791</ele>
        <time>2014-05-25T09:28:43Z</time>
      </trkpt>
      <trkpt lat="43.94031" lon="6.24216">
        <ele>791</ele>
        <time>2014-05-25T09:28:55Z</time>
      </trkpt>
      <trkpt lat="43.94024" lon="6.24228">
        <ele>792</ele>
        <time>2014-05-25T09:29:07Z</time>
      </trkpt>
      <trkpt lat="43.94014" lon="6.24235">
        <ele>791</ele>
        <time>2014-05-25T09:29:15Z</time>
      </trkpt>
      <trkpt lat="43.94009" lon="6.24247">
        <ele>790</ele>
        <time>2014-05-25T09:29:23Z</time>
      </trkpt>
      <trkpt lat="43.94008" lon="6.24249">
        <ele>790.4</ele>
        <time>2014-05-25T09:29:25Z</time>
      </trkpt>
      <trkpt lat="43.93991" lon="6.24267">
        <ele>789</ele>
        <time>2014-05-25T09:29:43Z</time>
      </trkpt>
      <trkpt lat="43.93981" lon="6.24272">
        <ele>788</ele>
        <time>2014-05-25T09:29:55Z</time>
      </trkpt>
      <trkpt lat="43.93969" lon="6.24267">
        <ele>787</ele>
        <time>2014-05-25T09:30:07Z</time>
      </trkpt>
      <trkpt lat="43.93955" lon="6.24269">
        <ele>787</ele>
        <time>2014-05-25T09:30:20Z</time>
      </trkpt>
      <trkpt lat="43.93947" lon="6.24273">
        <ele>787.7</ele>
        <time>2014-05-25T09:31:16Z</time>
      </trkpt>
      <trkpt lat="43.93947" lon="6.24273">
        <ele>787.9</ele>
        <time>2014-05-25T09:31:17Z</time>
      </trkpt>
      <trkpt lat="43.93929" lon="6.24288">
        <ele>786.2</ele>
        <time>2014-05-25T09:31:37Z</time>
      </trkpt>
      <trkpt lat="43.93922" lon="6.24292">
        <ele>786.5</ele>
        <time>2014-05-25T09:31:47Z</time>
      </trkpt>
      <trkpt lat="43.93914" lon="6.24296">
        <ele>785.2</ele>
        <time>2014-05-25T09:31:55Z</time>
      </trkpt>
      <trkpt lat="43.93906" lon="6.24299">
        <ele>784.4</ele>
        <time>2014-05-25T09:32:04Z</time>
      </trkpt>
      <trkpt lat="43.93897" lon="6.24301">
        <ele>785.2</ele>
        <time>2014-05-25T09:32:10Z</time>
      </trkpt>
      <trkpt lat="43.93889" lon="6.24308">
        <ele>783.9</ele>
        <time>2014-05-25T09:32:28Z</time>
      </trkpt>
      <trkpt lat="43.93889" lon="6.24311">
        <ele>783.3</ele>
        <time>2014-05-25T09:32:29Z</time>
      </trkpt>
      <trkpt lat="43.93881" lon="6.24328">
        <ele>783</ele>
        <time>2014-05-25T09:32:46Z</time>
      </trkpt>
      <trkpt lat="43.93875" lon="6.24336">
        <ele>783.5</ele>
        <time>2014-05-25T09:32:55Z</time>
      </trkpt>
      <trkpt lat="43.93867" lon="6.24337">
        <ele>782.3</ele>
        <time>2014-05-25T09:33:04Z</time>
      </trkpt>
      <trkpt lat="43.93859" lon="6.2434">
        <ele>781.7</ele>
        <time>2014-05-25T09:33:11Z</time>
      </trkpt>
      <trkpt lat="43.93854" lon="6.2435">
        <ele>781.9</ele>
        <time>2014-05-25T09:33:18Z</time>
      </trkpt>
      <trkpt lat="43.93846" lon="6.24351">
        <ele>781.3</ele>
        <time>2014-05-25T09:33:24Z</time>
      </trkpt>
      <trkpt lat="43.93839" lon="6.24356">
        <ele>781.2</ele>
        <time>2014-05-25T09:33:30Z</time>
      </trkpt>
      <trkpt lat="43.93838" lon="6.24357">
        <ele>781.1</ele>
        <time>2014-05-25T09:33:31Z</time>
      </trkpt>
      <trkpt lat="43.93828" lon="6.24373">
        <ele>780.6</ele>
        <time>2014-05-25T09:33:45Z</time>
      </trkpt>
      <trkpt lat="43.93821" lon="6.24379">
        <ele>779.7</ele>
        <time>2014-05-25T09:33:51Z</time>
      </trkpt>
      <trkpt lat="43.93816" lon="6.24387">
        <ele>780.2</ele>
        <time>2014-05-25T09:33:57Z</time>
      </trkpt>
      <trkpt lat="43.93809" lon="6.24396">
        <ele>779.8</ele>
        <time>2014-05-25T09:34:05Z</time>
      </trkpt>
      <trkpt lat="43.93803" lon="6.24404">
        <ele>779.7</ele>
        <time>2014-05-25T09:34:12Z</time>
      </trkpt>
      <trkpt lat="43.93795" lon="6.24403">
        <ele>778.7</ele>
        <time>2014-05-25T09:34:21Z</time>
      </trkpt>
      <trkpt lat="43.93786" lon="6.24403">
        <ele>777.3</ele>
        <time>2014-05-25T09:34:32Z</time>
      </trkpt>
      <trkpt lat="43.93784" lon="6.24403">
        <ele>777.2</ele>
        <time>2014-05-25T09:34:33Z</time>
      </trkpt>
      <trkpt lat="43.9377" lon="6.24399">
        <ele>777.1</ele>
        <time>2014-05-25T09:34:45Z</time>
      </trkpt>
      <trkpt lat="43.93763" lon="6.24397">
        <ele>776.8</ele>
        <time>2014-05-25T09:34:49Z</time>
      </trkpt>
      <trkpt lat="43.93754" lon="6.24398">
        <ele>775.7</ele>
        <time>2014-05-25T09:34:55Z</time>
      </trkpt>
      <trkpt lat="43.93747" lon="6.24405">
        <ele>775.7</ele>
        <time>2014-05-25T09:35:02Z</time>
      </trkpt>
      <trkpt lat="43.93746" lon="6.24415">
        <ele>775.3</ele>
        <time>2014-05-25T09:35:08Z</time>
      </trkpt>
      <trkpt lat="43.93737" lon="6.24421">
        <ele>774</ele>
        <time>2014-05-25T09:35:23Z</time>
      </trkpt>
      <trkpt lat="43.93722" lon="6.24429">
        <ele>773</ele>
        <time>2014-05-25T09:35:32Z</time>
      </trkpt>
      <trkpt lat="43.93721" lon="6.24429">
        <ele>773.8</ele>
        <time>2014-05-25T09:35:34Z</time>
      </trkpt>
      <trkpt lat="43.937" lon="6.24452">
        <ele>772</ele>
        <time>2014-05-25T09:35:52Z</time>
      </trkpt>
      <trkpt lat="43.93687" lon="6.24456">
        <ele>772</ele>
        <time>2014-05-25T09:36:04Z</time>
      </trkpt>
      <trkpt lat="43.93677" lon="6.24465">
        <ele>771</ele>
        <time>2014-05-25T09:36:16Z</time>
      </trkpt>
      <trkpt lat="43.9367" lon="6.24476">
        <ele>771</ele>
        <time>2014-05-25T09:36:24Z</time>
      </trkpt>
      <trkpt lat="43.93661" lon="6.24483">
        <ele>771</ele>
        <time>2014-05-25T09:36:32Z</time>
      </trkpt>
      <trkpt lat="43.93654" lon="6.24494">
        <ele>769</ele>
        <time>2014-05-25T09:36:49Z</time>
      </trkpt>
      <trkpt lat="43.93653" lon="6.24494">
        <ele>769.7</ele>
        <time>2014-05-25T09:36:51Z</time>
      </trkpt>
      <trkpt lat="43.9364" lon="6.24484">
        <ele>769</ele>
        <time>2014-05-25T09:37:04Z</time>
      </trkpt>
      <trkpt lat="43.93634" lon="6.24495">
        <ele>769</ele>
        <time>2014-05-25T09:37:42Z</time>
      </trkpt>
      <trkpt lat="43.93632" lon="6.24507">
        <ele>767</ele>
        <time>2014-05-25T09:37:50Z</time>
      </trkpt>
      <trkpt lat="43.93631" lon="6.24508">
        <ele>767.9</ele>
        <time>2014-05-25T09:37:52Z</time>
      </trkpt>
      <trkpt lat="43.93628" lon="6.24533">
        <ele>768</ele>
        <time>2014-05-25T09:38:26Z</time>
      </trkpt>
      <trkpt lat="43.93618" lon="6.24544">
        <ele>767</ele>
        <time>2014-05-25T09:38:38Z</time>
      </trkpt>
      <trkpt lat="43.93614" lon="6.24556">
        <ele>766</ele>
        <time>2014-05-25T09:38:46Z</time>
      </trkpt>
      <trkpt lat="43.93603" lon="6.24558">
        <ele>767</ele>
        <time>2014-05-25T09:38:58Z</time>
      </trkpt>
      <trkpt lat="43.93602" lon="6.24558">
        <ele>767.2</ele>
        <time>2014-05-25T09:39:00Z</time>
      </trkpt>
      <trkpt lat="43.9358" lon="6.24574">
        <ele>765</ele>
        <time>2014-05-25T09:39:18Z</time>
      </trkpt>
      <trkpt lat="43.93567" lon="6.24571">
        <ele>764</ele>
        <time>2014-05-25T09:39:26Z</time>
      </trkpt>
      <trkpt lat="43.93557" lon="6.24569">
        <ele>763</ele>
        <time>2014-05-25T09:39:34Z</time>
      </trkpt>
      <trkpt lat="43.93546" lon="6.24564">
        <ele>762.8</ele>
        <time>2014-05-25T09:39:41Z</time>
      </trkpt>
      <trkpt lat="43.9354" lon="6.2456">
        <ele>762</ele>
        <time>2014-05-25T09:39:45Z</time>
      </trkpt>
      <trkpt lat="43.93527" lon="6.24562">
        <ele>759</ele>
        <time>2014-05-25T09:39:53Z</time>
      </trkpt>
      <trkpt lat="43.93523" lon="6.24554">
        <ele>758.1</ele>
        <time>2014-05-25T09:40:07Z</time>
      </trkpt>
      <trkpt lat="43.93522" lon="6.2455">
        <ele>758.2</ele>
        <time>2014-05-25T09:40:08Z</time>
      </trkpt>
      <trkpt lat="43.93509" lon="6.2454">
        <ele>758</ele>
        <time>2014-05-25T09:40:22Z</time>
      </trkpt>
      <trkpt lat="43.93504" lon="6.24532">
        <ele>756.5</ele>
        <time>2014-05-25T09:40:27Z</time>
      </trkpt>
      <trkpt lat="43.93496" lon="6.24531">
        <ele>756.6</ele>
        <time>2014-05-25T09:40:31Z</time>
      </trkpt>
      <trkpt lat="43.93489" lon="6.2453">
        <ele>755.1</ele>
        <time>2014-05-25T09:40:35Z</time>
      </trkpt>
      <trkpt lat="43.93482" lon="6.24525">
        <ele>755</ele>
        <time>2014-05-25T09:40:39Z</time>
      </trkpt>
      <trkpt lat="43.93474" lon="6.2452">
        <ele>753.3</ele>
        <time>2014-05-25T09:40:47Z</time>
      </trkpt>
      <trkpt lat="43.93466" lon="6.24515">
        <ele>752.1</ele>
        <time>2014-05-25T09:40:52Z</time>
      </trkpt>
      <trkpt lat="43.93457" lon="6.24512">
        <ele>751.8</ele>
        <time>2014-05-25T09:40:56Z</time>
      </trkpt>
      <trkpt lat="43.93449" lon="6.24514">
        <ele>750.9</ele>
        <time>2014-05-25T09:41:01Z</time>
      </trkpt>
      <trkpt lat="43.93441" lon="6.24519">
        <ele>749.2</ele>
        <time>2014-05-25T09:41:07Z</time>
      </trkpt>
      <trkpt lat="43.93433" lon="6.24522">
        <ele>746.9</ele>
        <time>2014-05-25T09:41:14Z</time>
      </trkpt>
      <trkpt lat="43.93432" lon="6.24522">
        <ele>746.7</ele>
        <time>2014-05-25T09:41:15Z</time>
      </trkpt>
      <trkpt lat="43.9342" lon="6.24537">
        <ele>744.5</ele>
        <time>2014-05-25T09:41:29Z</time>
      </trkpt>
      <trkpt lat="43.93414" lon="6.24542">
        <ele>742.9</ele>
        <time>2014-05-25T09:41:37Z</time>
      </trkpt>
      <trkpt lat="43.93406" lon="6.24549">
        <ele>742.5</ele>
        <time>2014-05-25T09:41:43Z</time>
      </trkpt>
      <trkpt lat="43.93401" lon="6.24558">
        <ele>741.6</ele>
        <time>2014-05-25T09:41:51Z</time>
      </trkpt>
      <trkpt lat="43.93393" lon="6.24559">
        <ele>740.5</ele>
        <time>2014-05-25T09:41:56Z</time>
      </trkpt>
      <trkpt lat="43.93386" lon="6.24566">
        <ele>738.6</ele>
        <time>2014-05-25T09:42:09Z</time>
      </trkpt>
      <trkpt lat="43.93376" lon="6.24569">
        <ele>738.1</ele>
        <time>2014-05-25T09:42:20Z</time>
      </trkpt>
      <trkpt lat="43.93376" lon="6.24572">
        <ele>738.1</ele>
        <time>2014-05-25T09:42:21Z</time>
      </trkpt>
      <trkpt lat="43.93372" lon="6.24586">
        <ele>736.9</ele>
        <time>2014-05-25T09:43:13Z</time>
      </trkpt>
      <trkpt lat="43.93364" lon="6.24583">
        <ele>738.5</ele>
        <time>2014-05-25T09:43:51Z</time>
      </trkpt>
      <trkpt lat="43.93363" lon="6.24582">
        <ele>738.6</ele>
        <time>2014-05-25T09:43:52Z</time>
      </trkpt>
      <trkpt lat="43.93378" lon="6.24568">
        <ele>738</ele>
        <time>2014-05-25T09:44:41Z</time>
      </trkpt>
      <trkpt lat="43.93377" lon="6.24556">
        <ele>740</ele>
        <time>2014-05-25T09:44:58Z</time>
      </trkpt>
      <trkpt lat="43.93377" lon="6.24554">
        <ele>740.3</ele>
        <time>2014-05-25T09:44:59Z</time>
      </trkpt>
      <trkpt lat="43.93384" lon="6.24542">
        <ele>740.2</ele>
        <time>2014-05-25T09:45:12Z</time>
      </trkpt>
      <trkpt lat="43.9338" lon="6.24553">
        <ele>740.4</ele>
        <time>2014-05-25T09:46:31Z</time>
      </trkpt>
      <trkpt lat="43.9338" lon="6.24553">
        <ele>740.4</ele>
        <time>2014-05-25T09:46:32Z</time>
      </trkpt>
      <trkpt lat="43.93381" lon="6.24553">
        <ele>740</ele>
        <time>2014-05-25T09:48:13Z</time>
      </trkpt>
      <trkpt lat="43.93379" lon="6.24554">
        <ele>740.1</ele>
        <time>2014-05-25T09:48:16Z</time>
      </trkpt>
      <trkpt lat="43.93381" lon="6.24532">
        <ele>740.4</ele>
        <time>2014-05-25T09:49:03Z</time>
      </trkpt>
      <trkpt lat="43.93393" lon="6.24526">
        <ele>740.3</ele>
        <time>2014-05-25T09:50:19Z</time>
      </trkpt>
      <trkpt lat="43.93395" lon="6.24526">
        <ele>740.3</ele>
        <time>2014-05-25T09:50:20Z</time>
      </trkpt>
      <trkpt lat="43.93388" lon="6.24522">
        <ele>740</ele>
        <time>2014-05-25T09:51:08Z</time>
      </trkpt>
      <trkpt lat="43.93399" lon="6.2453">
        <ele>740.4</ele>
        <time>2014-05-25T09:51:22Z</time>
      </trkpt>
      <trkpt lat="43.934" lon="6.24531">
        <ele>740.5</ele>
        <time>2014-05-25T09:51:23Z</time>
      </trkpt>
      <trkpt lat="43.93396" lon="6.24527">
        <ele>739.5</ele>
        <time>2014-05-25T09:51:50Z</time>
      </trkpt>
      <trkpt lat="43.93404" lon="6.24521">
        <ele>739.9</ele>
        <time>2014-05-25T09:51:57Z</time>
      </trkpt>
      <trkpt lat="43.93406" lon="6.2451">
        <ele>741.8</ele>
        <time>2014-05-25T09:52:23Z</time>
      </trkpt>
      <trkpt lat="43.93408" lon="6.24509">
        <ele>742.4</ele>
        <time>2014-05-25T09:52:24Z</time>
      </trkpt>
      <trkpt lat="43.93419" lon="6.24498">
        <ele>744.6</ele>
        <time>2014-05-25T09:52:46Z</time>
      </trkpt>
      <trkpt lat="43.93418" lon="6.24482">
        <ele>746</ele>
        <time>2014-05-25T09:53:04Z</time>
      </trkpt>
      <trkpt lat="43.93417" lon="6.24466">
        <ele>747</ele>
        <time>2014-05-25T09:53:16Z</time>
      </trkpt>
      <trkpt lat="43.93423" lon="6.24457">
        <ele>751.8</ele>
        <time>2014-05-25T09:53:44Z</time>
      </trkpt>
      <trkpt lat="43.93423" lon="6.24456">
        <ele>751.9</ele>
        <time>2014-05-25T09:53:45Z</time>
      </trkpt>
      <trkpt lat="43.9344" lon="6.24448">
        <ele>753</ele>
        <time>2014-05-25T09:54:06Z</time>
      </trkpt>
      <trkpt lat="43.93446" lon="6.24433">
        <ele>753</ele>
        <time>2014-05-25T09:54:17Z</time>
      </trkpt>
      <trkpt lat="43.93447" lon="6.24427">
        <ele>765</ele>
        <time>2014-05-25T09:56:44Z</time>
      </trkpt>
      <trkpt lat="43.93458" lon="6.24415">
        <ele>765</ele>
        <time>2014-05-25T09:56:48Z</time>
      </trkpt>
      <trkpt lat="43.93482" lon="6.24395">
        <ele>766</ele>
        <time>2014-05-25T09:56:56Z</time>
      </trkpt>
      <trkpt lat="43.9349" lon="6.24374">
        <ele>767.1</ele>
        <time>2014-05-25T09:56:58Z</time>
      </trkpt>
      <trkpt lat="43.93492" lon="6.24361">
        <ele>767</ele>
        <time>2014-05-25T09:57:04Z</time>
      </trkpt>
      <trkpt lat="43.93491" lon="6.24348">
        <ele>768</ele>
        <time>2014-05-25T09:57:08Z</time>
      </trkpt>
      <trkpt lat="43.93483" lon="6.24331">
        <ele>769</ele>
        <time>2014-05-25T09:57:12Z</time>
      </trkpt>
      <trkpt lat="43.93473" lon="6.24317">
        <ele>769</ele>
        <time>2014-05-25T09:57:16Z</time>
      </trkpt>
      <trkpt lat="43.93447" lon="6.24299">
        <ele>769</ele>
        <time>2014-05-25T09:57:20Z</time>
      </trkpt>
      <trkpt lat="43.93449" lon="6.24312">
        <ele>770</ele>
        <time>2014-05-25T09:57:28Z</time>
      </trkpt>
      <trkpt lat="43.93441" lon="6.24307">
        <ele>772</ele>
        <time>2014-05-25T09:57:40Z</time>
      </trkpt>
      <trkpt lat="43.9343" lon="6.24304">
        <ele>773</ele>
        <time>2014-05-25T09:57:52Z</time>
      </trkpt>
      <trkpt lat="43.93421" lon="6.24312">
        <ele>773</ele>
        <time>2014-05-25T09:58:00Z</time>
      </trkpt>
      <trkpt lat="43.93419" lon="6.24315">
        <ele>775</ele>
        <time>2014-05-25T09:58:02Z</time>
      </trkpt>
      <trkpt lat="43.934" lon="6.24311">
        <ele>777</ele>
        <time>2014-05-25T09:58:12Z</time>
      </trkpt>
      <trkpt lat="43.9339" lon="6.24317">
        <ele>778</ele>
        <time>2014-05-25T09:58:20Z</time>
      </trkpt>
      <trkpt lat="43.93381" lon="6.24327">
        <ele>779</ele>
        <time>2014-05-25T09:58:28Z</time>
      </trkpt>
      <trkpt lat="43.93369" lon="6.24335">
        <ele>780</ele>
        <time>2014-05-25T09:58:37Z</time>
      </trkpt>
      <trkpt lat="43.93358" lon="6.2434">
        <ele>782</ele>
        <time>2014-05-25T09:58:53Z</time>
      </trkpt>
      <trkpt lat="43.93347" lon="6.24332">
        <ele>785</ele>
        <time>2014-05-25T09:59:13Z</time>
      </trkpt>
      <trkpt lat="43.93346" lon="6.2433">
        <ele>785.9</ele>
        <time>2014-05-25T09:59:15Z</time>
      </trkpt>
      <trkpt lat="43.93327" lon="6.24319">
        <ele>788</ele>
        <time>2014-05-25T09:59:37Z</time>
      </trkpt>
      <trkpt lat="43.93316" lon="6.24316">
        <ele>789</ele>
        <time>2014-05-25T09:59:45Z</time>
      </trkpt>
      <trkpt lat="43.93307" lon="6.24311">
        <ele>790</ele>
        <time>2014-05-25T10:00:05Z</time>
      </trkpt>
      <trkpt lat="43.93298" lon="6.2431">
        <ele>790</ele>
        <time>2014-05-25T10:00:26Z</time>
      </trkpt>
      <trkpt lat="43.93298" lon="6.24311">
        <ele>790.6</ele>
        <time>2014-05-25T10:00:28Z</time>
      </trkpt>
      <trkpt lat="43.93295" lon="6.2431">
        <ele>791</ele>
        <time>2014-05-25T10:01:18Z</time>
      </trkpt>
      <trkpt lat="43.93287" lon="6.24317">
        <ele>792</ele>
        <time>2014-05-25T10:01:51Z</time>
      </trkpt>
      <trkpt lat="43.93288" lon="6.2432">
        <ele>792.7</ele>
        <time>2014-05-25T10:01:53Z</time>
      </trkpt>
      <trkpt lat="43.93275" lon="6.24297">
        <ele>794</ele>
        <time>2014-05-25T10:02:23Z</time>
      </trkpt>
      <trkpt lat="43.93268" lon="6.24281">
        <ele>796</ele>
        <time>2014-05-25T10:02:35Z</time>
      </trkpt>
      <trkpt lat="43.93262" lon="6.24264">
        <ele>797</ele>
        <time>2014-05-25T10:02:44Z</time>
      </trkpt>
      <trkpt lat="43.93254" lon="6.24253">
        <ele>798</ele>
        <time>2014-05-25T10:02:52Z</time>
      </trkpt>
      <trkpt lat="43.93243" lon="6.24243">
        <ele>799</ele>
        <time>2014-05-25T10:03:00Z</time>
      </trkpt>
      <trkpt lat="43.93241" lon="6.24242">
        <ele>799.6</ele>
        <time>2014-05-25T10:03:02Z</time>
      </trkpt>
      <trkpt lat="43.93223" lon="6.24225">
        <ele>801</ele>
        <time>2014-05-25T10:03:16Z</time>
      </trkpt>
      <trkpt lat="43.93215" lon="6.24213">
        <ele>801</ele>
        <time>2014-05-25T10:03:24Z</time>
      </trkpt>
      <trkpt lat="43.932" lon="6.24218">
        <ele>802</ele>
        <time>2014-05-25T10:03:32Z</time>
      </trkpt>
      <trkpt lat="43.93208" lon="6.24212">
        <ele>804</ele>
        <time>2014-05-25T10:04:25Z</time>
      </trkpt>
      <trkpt lat="43.93208" lon="6.24212">
        <ele>805.5</ele>
        <time>2014-05-25T10:04:27Z</time>
      </trkpt>
      <trkpt lat="43.93231" lon="6.24201">
        <ele>807</ele>
        <time>2014-05-25T10:04:54Z</time>
      </trkpt>
      <trkpt lat="43.93243" lon="6.24194">
        <ele>808</ele>
        <time>2014-05-25T10:05:06Z</time>
      </trkpt>
      <trkpt lat="43.93247" lon="6.24208">
        <ele>809</ele>
        <time>2014-05-25T10:05:26Z</time>
      </trkpt>
      <trkpt lat="43.93247" lon="6.24211">
        <ele>810</ele>
        <time>2014-05-25T10:05:28Z</time>
      </trkpt>
      <trkpt lat="43.9327" lon="6.2422">
        <ele>811</ele>
        <time>2014-05-25T10:05:53Z</time>
      </trkpt>
      <trkpt lat="43.93281" lon="6.24222">
        <ele>812</ele>
        <time>2014-05-25T10:06:09Z</time>
      </trkpt>
      <trkpt lat="43.93292" lon="6.24218">
        <ele>812</ele>
        <time>2014-05-25T10:06:21Z</time>
      </trkpt>
      <trkpt lat="43.93301" lon="6.24222">
        <ele>812</ele>
        <time>2014-05-25T10:06:41Z</time>
      </trkpt>
      <trkpt lat="43.93301" lon="6.24222">
        <ele>812.4</ele>
        <time>2014-05-25T10:06:43Z</time>
      </trkpt>
      <trkpt lat="43.93298" lon="6.2422">
        <ele>812</ele>
        <time>2014-05-25T10:07:07Z</time>
      </trkpt>
      <trkpt lat="43.93288" lon="6.2423">
        <ele>811</ele>
        <time>2014-05-25T10:07:18Z</time>
      </trkpt>
      <trkpt lat="43.93298" lon="6.24222">
        <ele>812</ele>
        <time>2014-05-25T10:07:54Z</time>
      </trkpt>
      <trkpt lat="43.933" lon="6.24219">
        <ele>812.7</ele>
        <time>2014-05-25T10:07:57Z</time>
      </trkpt>
      <trkpt lat="43.93296" lon="6.24222">
        <ele>812</ele>
        <time>2014-05-25T10:08:35Z</time>
      </trkpt>
      <trkpt lat="43.93307" lon="6.24222">
        <ele>813</ele>
        <time>2014-05-25T10:08:53Z</time>
      </trkpt>
      <trkpt lat="43.93317" lon="6.24226">
        <ele>814</ele>
        <time>2014-05-25T10:09:07Z</time>
      </trkpt>
      <trkpt lat="43.93319" lon="6.24227">
        <ele>815</ele>
        <time>2014-05-25T10:09:09Z</time>
      </trkpt>
      <trkpt lat="43.9334" lon="6.24214">
        <ele>817</ele>
        <time>2014-05-25T10:09:31Z</time>
      </trkpt>
      <trkpt lat="43.9335" lon="6.24204">
        <ele>818</ele>
        <time>2014-05-25T10:09:46Z</time>
      </trkpt>
      <trkpt lat="43.93361" lon="6.24213">
        <ele>820</ele>
        <time>2014-05-25T10:10:37Z</time>
      </trkpt>
      <trkpt lat="43.93362" lon="6.24215">
        <ele>821.2</ele>
        <time>2014-05-25T10:10:39Z</time>
      </trkpt>
      <trkpt lat="43.93378" lon="6.24218">
        <ele>821</ele>
        <time>2014-05-25T10:10:53Z</time>
      </trkpt>
      <trkpt lat="43.9339" lon="6.24213">
        <ele>823</ele>
        <time>2014-05-25T10:11:05Z</time>
      </trkpt>
      <trkpt lat="43.93403" lon="6.24212">
        <ele>824</ele>
        <time>2014-05-25T10:11:17Z</time>
      </trkpt>
      <trkpt lat="43.93419" lon="6.24207">
        <ele>824</ele>
        <time>2014-05-25T10:11:29Z</time>
      </trkpt>
      <trkpt lat="43.93428" lon="6.24203">
        <ele>825</ele>
        <time>2014-05-25T10:11:37Z</time>
      </trkpt>
      <trkpt lat="43.93438" lon="6.24201">
        <ele>826</ele>
        <time>2014-05-25T10:11:49Z</time>
      </trkpt>
      <trkpt lat="43.93441" lon="6.242">
        <ele>826.5</ele>
        <time>2014-05-25T10:11:51Z</time>
      </trkpt>
      <trkpt lat="43.93458" lon="6.24184">
        <ele>827</ele>
        <time>2014-05-25T10:12:05Z</time>
      </trkpt>
      <trkpt lat="43.93469" lon="6.24174">
        <ele>828</ele>
        <time>2014-05-25T10:12:17Z</time>
      </trkpt>
      <trkpt lat="43.93477" lon="6.24167">
        <ele>829</ele>
        <time>2014-05-25T10:12:25Z</time>
      </trkpt>
      <trkpt lat="43.93487" lon="6.24169">
        <ele>830</ele>
        <time>2014-05-25T10:12:41Z</time>
      </trkpt>
      <trkpt lat="43.935" lon="6.24177">
        <ele>832</ele>
        <time>2014-05-25T10:12:57Z</time>
      </trkpt>
      <trkpt lat="43.93501" lon="6.2418">
        <ele>832.5</ele>
        <time>2014-05-25T10:12:59Z</time>
      </trkpt>
      <trkpt lat="43.9352" lon="6.24191">
        <ele>834</ele>
        <time>2014-05-25T10:13:21Z</time>
      </trkpt>
      <trkpt lat="43.93529" lon="6.24195">
        <ele>836</ele>
        <time>2014-05-25T10:13:41Z</time>
      </trkpt>
      <trkpt lat="43.93543" lon="6.24194">
        <ele>836</ele>
        <time>2014-05-25T10:13:49Z</time>
      </trkpt>
      <trkpt lat="43.9355" lon="6.24202">
        <ele>837</ele>
        <time>2014-05-25T10:13:57Z</time>
      </trkpt>
      <trkpt lat="43.93559" lon="6.24205">
        <ele>837</ele>
        <time>2014-05-25T10:14:10Z</time>
      </trkpt>
      <trkpt lat="43.9356" lon="6.24206">
        <ele>837.5</ele>
        <time>2014-05-25T10:14:12Z</time>
      </trkpt>
      <trkpt lat="43.93569" lon="6.24185">
        <ele>838</ele>
        <time>2014-05-25T10:15:06Z</time>
      </trkpt>
      <trkpt lat="43.93576" lon="6.2418">
        <ele>838.8</ele>
        <time>2014-05-25T10:15:18Z</time>
      </trkpt>
      <trkpt lat="43.93577" lon="6.2418">
        <ele>839.2</ele>
        <time>2014-05-25T10:15:19Z</time>
      </trkpt>
      <trkpt lat="43.93588" lon="6.24167">
        <ele>839.5</ele>
        <time>2014-05-25T10:15:31Z</time>
      </trkpt>
      <trkpt lat="43.93595" lon="6.24159">
        <ele>839.2</ele>
        <time>2014-05-25T10:15:36Z</time>
      </trkpt>
      <trkpt lat="43.93603" lon="6.24153">
        <ele>840.1</ele>
        <time>2014-05-25T10:15:44Z</time>
      </trkpt>
      <trkpt lat="43.93611" lon="6.24151">
        <ele>841.2</ele>
        <time>2014-05-25T10:15:56Z</time>
      </trkpt>
      <trkpt lat="43.93617" lon="6.24147">
        <ele>841.5</ele>
        <time>2014-05-25T10:16:00Z</time>
      </trkpt>
      <trkpt lat="43.93625" lon="6.24144">
        <ele>841.7</ele>
        <time>2014-05-25T10:16:05Z</time>
      </trkpt>
      <trkpt lat="43.93632" lon="6.24138">
        <ele>841.8</ele>
        <time>2014-05-25T10:16:11Z</time>
      </trkpt>
      <trkpt lat="43.93638" lon="6.24131">
        <ele>841.9</ele>
        <time>2014-05-25T10:16:17Z</time>
      </trkpt>
      <trkpt lat="43.93643" lon="6.24124">
        <ele>841.2</ele>
        <time>2014-05-25T10:16:20Z</time>
      </trkpt>
      <trkpt lat="43.93645" lon="6.24122">
        <ele>841.2</ele>
        <time>2014-05-25T10:16:21Z</time>
      </trkpt>
      <trkpt lat="43.93654" lon="6.24108">
        <ele>843</ele>
        <time>2014-05-25T10:16:30Z</time>
      </trkpt>
      <trkpt lat="43.93661" lon="6.24102">
        <ele>843.1</ele>
        <time>2014-05-25T10:16:34Z</time>
      </trkpt>
      <trkpt lat="43.93663" lon="6.24092">
        <ele>843.6</ele>
        <time>2014-05-25T10:16:39Z</time>
      </trkpt>
      <trkpt lat="43.93668" lon="6.24081">
        <ele>843.7</ele>
        <time>2014-05-25T10:16:48Z</time>
      </trkpt>
      <trkpt lat="43.93668" lon="6.2407">
        <ele>844.4</ele>
        <time>2014-05-25T10:16:54Z</time>
      </trkpt>
      <trkpt lat="43.9367" lon="6.24059">
        <ele>844.8</ele>
        <time>2014-05-25T10:16:59Z</time>
      </trkpt>
      <trkpt lat="43.93671" lon="6.24047">
        <ele>845.4</ele>
        <time>2014-05-25T10:17:06Z</time>
      </trkpt>
      <trkpt lat="43.93673" lon="6.24036">
        <ele>846.2</ele>
        <time>2014-05-25T10:17:15Z</time>
      </trkpt>
      <trkpt lat="43.93675" lon="6.24025">
        <ele>846.9</ele>
        <time>2014-05-25T10:17:20Z</time>
      </trkpt>
      <trkpt lat="43.9368" lon="6.24016">
        <ele>847.4</ele>
        <time>2014-05-25T10:17:28Z</time>
      </trkpt>
      <trkpt lat="43.93682" lon="6.24015">
        <ele>847.6</ele>
        <time>2014-05-25T10:17:29Z</time>
      </trkpt>
      <trkpt lat="43.93691" lon="6.24001">
        <ele>847.4</ele>
        <time>2014-05-25T10:17:38Z</time>
      </trkpt>
      <trkpt lat="43.93692" lon="6.23987">
        <ele>847</ele>
        <time>2014-05-25T10:17:43Z</time>
      </trkpt>
      <trkpt lat="43.93694" lon="6.23977">
        <ele>848.9</ele>
        <time>2014-05-25T10:17:54Z</time>
      </trkpt>
      <trkpt lat="43.937" lon="6.23971">
        <ele>848.5</ele>
        <time>2014-05-25T10:17:58Z</time>
      </trkpt>
      <trkpt lat="43.93707" lon="6.23964">
        <ele>848.6</ele>
        <time>2014-05-25T10:18:03Z</time>
      </trkpt>
      <trkpt lat="43.93714" lon="6.23957">
        <ele>849.4</ele>
        <time>2014-05-25T10:18:11Z</time>
      </trkpt>
      <trkpt lat="43.93719" lon="6.23947">
        <ele>849.8</ele>
        <time>2014-05-25T10:18:17Z</time>
      </trkpt>
      <trkpt lat="43.9372" lon="6.23935">
        <ele>849.7</ele>
        <time>2014-05-25T10:18:24Z</time>
      </trkpt>
      <trkpt lat="43.93718" lon="6.23925">
        <ele>849.7</ele>
        <time>2014-05-25T10:18:28Z</time>
      </trkpt>
      <trkpt lat="43.93719" lon="6.23914">
        <ele>849.9</ele>
        <time>2014-05-25T10:18:33Z</time>
      </trkpt>
      <trkpt lat="43.93718" lon="6.23912">
        <ele>849.7</ele>
        <time>2014-05-25T10:18:34Z</time>
      </trkpt>
      <trkpt lat="43.93718" lon="6.23893">
        <ele>850.6</ele>
        <time>2014-05-25T10:18:47Z</time>
      </trkpt>
      <trkpt lat="43.93716" lon="6.23882">
        <ele>850.6</ele>
        <time>2014-05-25T10:18:52Z</time>
      </trkpt>
      <trkpt lat="43.93711" lon="6.23872">
        <ele>851.9</ele>
        <time>2014-05-25T10:18:59Z</time>
      </trkpt>
      <trkpt lat="43.93707" lon="6.23862">
        <ele>852.5</ele>
        <time>2014-05-25T10:19:07Z</time>
      </trkpt>
      <trkpt lat="43.93701" lon="6.23854">
        <ele>853.3</ele>
        <time>2014-05-25T10:19:12Z</time>
      </trkpt>
      <trkpt lat="43.93696" lon="6.23846">
        <ele>853.6</ele>
        <time>2014-05-25T10:19:18Z</time>
      </trkpt>
      <trkpt lat="43.93691" lon="6.23836">
        <ele>854.8</ele>
        <time>2014-05-25T10:19:42Z</time>
      </trkpt>
      <trkpt lat="43.93691" lon="6.23835">
        <ele>854.9</ele>
        <time>2014-05-25T10:19:43Z</time>
      </trkpt>
      <trkpt lat="43.93689" lon="6.23812">
        <ele>856.4</ele>
        <time>2014-05-25T10:20:05Z</time>
      </trkpt>
      <trkpt lat="43.93687" lon="6.23801">
        <ele>857.4</ele>
        <time>2014-05-25T10:20:16Z</time>
      </trkpt>
      <trkpt lat="43.93684" lon="6.23789">
        <ele>858.6</ele>
        <time>2014-05-25T10:20:25Z</time>
      </trkpt>
      <trkpt lat="43.93683" lon="6.23779">
        <ele>859.4</ele>
        <time>2014-05-25T10:20:35Z</time>
      </trkpt>
      <trkpt lat="43.93685" lon="6.23771">
        <ele>859.7</ele>
        <time>2014-05-25T10:20:38Z</time>
      </trkpt>
      <trkpt lat="43.9369" lon="6.23761">
        <ele>860.7</ele>
        <time>2014-05-25T10:20:46Z</time>
      </trkpt>
      <trkpt lat="43.93692" lon="6.2376">
        <ele>860.6</ele>
        <time>2014-05-25T10:20:47Z</time>
      </trkpt>
      <trkpt lat="43.9369" lon="6.23738">
        <ele>862.5</ele>
        <time>2014-05-25T10:21:00Z</time>
      </trkpt>
      <trkpt lat="43.93687" lon="6.23727">
        <ele>863</ele>
        <time>2014-05-25T10:21:08Z</time>
      </trkpt>
      <trkpt lat="43.93693" lon="6.23718">
        <ele>864.5</ele>
        <time>2014-05-25T10:21:19Z</time>
      </trkpt>
      <trkpt lat="43.937" lon="6.23712">
        <ele>865.6</ele>
        <time>2014-05-25T10:21:27Z</time>
      </trkpt>
      <trkpt lat="43.93706" lon="6.23706">
        <ele>866.8</ele>
        <time>2014-05-25T10:21:54Z</time>
      </trkpt>
      <trkpt lat="43.93706" lon="6.23704">
        <ele>866.6</ele>
        <time>2014-05-25T10:21:55Z</time>
      </trkpt>
      <trkpt lat="43.93719" lon="6.23691">
        <ele>868.1</ele>
        <time>2014-05-25T10:22:12Z</time>
      </trkpt>
      <trkpt lat="43.93722" lon="6.23679">
        <ele>869.1</ele>
        <time>2014-05-25T10:22:38Z</time>
      </trkpt>
      <trkpt lat="43.93729" lon="6.23667">
        <ele>869</ele>
        <time>2014-05-25T10:23:45Z</time>
      </trkpt>
      <trkpt lat="43.9373" lon="6.23666">
        <ele>869.8</ele>
        <time>2014-05-25T10:23:47Z</time>
      </trkpt>
      <trkpt lat="43.93743" lon="6.23654">
        <ele>871.9</ele>
        <time>2014-05-25T10:24:08Z</time>
      </trkpt>
      <trkpt lat="43.9375" lon="6.23648">
        <ele>873.4</ele>
        <time>2014-05-25T10:24:17Z</time>
      </trkpt>
      <trkpt lat="43.93757" lon="6.2364">
        <ele>874.3</ele>
        <time>2014-05-25T10:24:32Z</time>
      </trkpt>
      <trkpt lat="43.93762" lon="6.2363">
        <ele>874.8</ele>
        <time>2014-05-25T10:24:48Z</time>
      </trkpt>
      <trkpt lat="43.93763" lon="6.23629">
        <ele>874.9</ele>
        <time>2014-05-25T10:24:49Z</time>
      </trkpt>
      <trkpt lat="43.93768" lon="6.2362">
        <ele>875.7</ele>
        <time>2014-05-25T10:26:36Z</time>
      </trkpt>
      <trkpt lat="43.93767" lon="6.23598">
        <ele>876.6</ele>
        <time>2014-05-25T10:27:07Z</time>
      </trkpt>
      <trkpt lat="43.93768" lon="6.23586">
        <ele>877.7</ele>
        <time>2014-05-25T10:27:17Z</time>
      </trkpt>
      <trkpt lat="43.93769" lon="6.23574">
        <ele>877.9</ele>
        <time>2014-05-25T10:27:27Z</time>
      </trkpt>
      <trkpt lat="43.93769" lon="6.23562">
        <ele>878.6</ele>
        <time>2014-05-25T10:27:37Z</time>
      </trkpt>
      <trkpt lat="43.93769" lon="6.23561">
        <ele>878.7</ele>
        <time>2014-05-25T10:27:38Z</time>
      </trkpt>
      <trkpt lat="43.93772" lon="6.23539">
        <ele>879.9</ele>
        <time>2014-05-25T10:28:51Z</time>
      </trkpt>
      <trkpt lat="43.93772" lon="6.23538">
        <ele>879.8</ele>
        <time>2014-05-25T10:28:52Z</time>
      </trkpt>
      <trkpt lat="43.93777" lon="6.23518">
        <ele>880.9</ele>
        <time>2014-05-25T10:29:28Z</time>
      </trkpt>
      <trkpt lat="43.93778" lon="6.23506">
        <ele>881.6</ele>
        <time>2014-05-25T10:29:36Z</time>
      </trkpt>
      <trkpt lat="43.93778" lon="6.23494">
        <ele>881.7</ele>
        <time>2014-05-25T10:29:43Z</time>
      </trkpt>
      <trkpt lat="43.93781" lon="6.23484">
        <ele>882.5</ele>
        <time>2014-05-25T10:29:50Z</time>
      </trkpt>
      <trkpt lat="43.93781" lon="6.23472">
        <ele>883.2</ele>
        <time>2014-05-25T10:29:59Z</time>
      </trkpt>
      <trkpt lat="43.93781" lon="6.2347">
        <ele>883.1</ele>
        <time>2014-05-25T10:30:00Z</time>
      </trkpt>
      <trkpt lat="43.93787" lon="6.23449">
        <ele>885.1</ele>
        <time>2014-05-25T10:30:16Z</time>
      </trkpt>
      <trkpt lat="43.9379" lon="6.23437">
        <ele>884.9</ele>
        <time>2014-05-25T10:30:24Z</time>
      </trkpt>
      <trkpt lat="43.93791" lon="6.23426">
        <ele>885.3</ele>
        <time>2014-05-25T10:30:30Z</time>
      </trkpt>
      <trkpt lat="43.93792" lon="6.23415">
        <ele>886.5</ele>
        <time>2014-05-25T10:30:39Z</time>
      </trkpt>
      <trkpt lat="43.93786" lon="6.23405">
        <ele>887</ele>
        <time>2014-05-25T10:30:55Z</time>
      </trkpt>
      <trkpt lat="43.93786" lon="6.23394">
        <ele>887.8</ele>
        <time>2014-05-25T10:31:08Z</time>
      </trkpt>
      <trkpt lat="43.93786" lon="6.23392">
        <ele>888.1</ele>
        <time>2014-05-25T10:31:09Z</time>
      </trkpt>
      <trkpt lat="43.93784" lon="6.23371">
        <ele>889.6</ele>
        <time>2014-05-25T10:31:24Z</time>
      </trkpt>
      <trkpt lat="43.9378" lon="6.23363">
        <ele>890.3</ele>
        <time>2014-05-25T10:31:31Z</time>
      </trkpt>
      <trkpt lat="43.93775" lon="6.23352">
        <ele>890.4</ele>
        <time>2014-05-25T10:31:39Z</time>
      </trkpt>
      <trkpt lat="43.9377" lon="6.23345">
        <ele>891.6</ele>
        <time>2014-05-25T10:31:47Z</time>
      </trkpt>
      <trkpt lat="43.93767" lon="6.23334">
        <ele>891.4</ele>
        <time>2014-05-25T10:31:55Z</time>
      </trkpt>
      <trkpt lat="43.93768" lon="6.23323">
        <ele>891.9</ele>
        <time>2014-05-25T10:32:02Z</time>
      </trkpt>
      <trkpt lat="43.93769" lon="6.23312">
        <ele>893.2</ele>
        <time>2014-05-25T10:32:10Z</time>
      </trkpt>
      <trkpt lat="43.93768" lon="6.2331">
        <ele>893.3</ele>
        <time>2014-05-25T10:32:11Z</time>
      </trkpt>
      <trkpt lat="43.93765" lon="6.23289">
        <ele>894.5</ele>
        <time>2014-05-25T10:32:29Z</time>
      </trkpt>
      <trkpt lat="43.93761" lon="6.23278">
        <ele>895.3</ele>
        <time>2014-05-25T10:32:37Z</time>
      </trkpt>
      <trkpt lat="43.93758" lon="6.23267">
        <ele>895.3</ele>
        <time>2014-05-25T10:32:47Z</time>
      </trkpt>
      <trkpt lat="43.93755" lon="6.23255">
        <ele>896.5</ele>
        <time>2014-05-25T10:32:59Z</time>
      </trkpt>
      <trkpt lat="43.9375" lon="6.23245">
        <ele>898</ele>
        <time>2014-05-25T10:33:19Z</time>
      </trkpt>
      <trkpt lat="43.93751" lon="6.23244">
        <ele>898</ele>
        <time>2014-05-25T10:33:20Z</time>
      </trkpt>
      <trkpt lat="43.93766" lon="6.23237">
        <ele>900.1</ele>
        <time>2014-05-25T10:33:45Z</time>
      </trkpt>
      <trkpt lat="43.93775" lon="6.23236">
        <ele>901.4</ele>
        <time>2014-05-25T10:33:57Z</time>
      </trkpt>
      <trkpt lat="43.93783" lon="6.23232">
        <ele>902.2</ele>
        <time>2014-05-25T10:34:09Z</time>
      </trkpt>
      <trkpt lat="43.9379" lon="6.23225">
        <ele>903.3</ele>
        <time>2014-05-25T10:34:18Z</time>
      </trkpt>
      <trkpt lat="43.93797" lon="6.23218">
        <ele>903.9</ele>
        <time>2014-05-25T10:34:26Z</time>
      </trkpt>
      <trkpt lat="43.93798" lon="6.23217">
        <ele>904.1</ele>
        <time>2014-05-25T10:34:27Z</time>
      </trkpt>
      <trkpt lat="43.93811" lon="6.23206">
        <ele>904.8</ele>
        <time>2014-05-25T10:34:41Z</time>
      </trkpt>
      <trkpt lat="43.93819" lon="6.232">
        <ele>906.1</ele>
        <time>2014-05-25T10:34:50Z</time>
      </trkpt>
      <trkpt lat="43.93825" lon="6.23192">
        <ele>906.5</ele>
        <time>2014-05-25T10:34:58Z</time>
      </trkpt>
      <trkpt lat="43.93831" lon="6.23183">
        <ele>908.1</ele>
        <time>2014-05-25T10:35:08Z</time>
      </trkpt>
      <trkpt lat="43.93838" lon="6.23176">
        <ele>909.1</ele>
        <time>2014-05-25T10:35:19Z</time>
      </trkpt>
      <trkpt lat="43.93846" lon="6.2317">
        <ele>909.3</ele>
        <time>2014-05-25T10:35:27Z</time>
      </trkpt>
      <trkpt lat="43.93846" lon="6.23169">
        <ele>909.4</ele>
        <time>2014-05-25T10:35:28Z</time>
      </trkpt>
      <trkpt lat="43.93858" lon="6.23156">
        <ele>910.4</ele>
        <time>2014-05-25T10:35:47Z</time>
      </trkpt>
      <trkpt lat="43.93864" lon="6.23148">
        <ele>911.2</ele>
        <time>2014-05-25T10:35:57Z</time>
      </trkpt>
      <trkpt lat="43.93872" lon="6.23143">
        <ele>912.1</ele>
        <time>2014-05-25T10:36:07Z</time>
      </trkpt>
      <trkpt lat="43.93879" lon="6.23137">
        <ele>912.4</ele>
        <time>2014-05-25T10:36:16Z</time>
      </trkpt>
      <trkpt lat="43.93882" lon="6.23125">
        <ele>913.7</ele>
        <time>2014-05-25T10:36:27Z</time>
      </trkpt>
      <trkpt lat="43.93879" lon="6.23114">
        <ele>914.2</ele>
        <time>2014-05-25T10:36:34Z</time>
      </trkpt>
      <trkpt lat="43.9388" lon="6.23112">
        <ele>914.1</ele>
        <time>2014-05-25T10:36:35Z</time>
      </trkpt>
      <trkpt lat="43.93885" lon="6.23092">
        <ele>915.5</ele>
        <time>2014-05-25T10:36:53Z</time>
      </trkpt>
      <trkpt lat="43.93889" lon="6.23083">
        <ele>916.3</ele>
        <time>2014-05-25T10:37:00Z</time>
      </trkpt>
      <trkpt lat="43.93887" lon="6.23071">
        <ele>916.7</ele>
        <time>2014-05-25T10:37:08Z</time>
      </trkpt>
      <trkpt lat="43.93887" lon="6.23059">
        <ele>916.6</ele>
        <time>2014-05-25T10:37:19Z</time>
      </trkpt>
      <trkpt lat="43.9388" lon="6.23051">
        <ele>918.4</ele>
        <time>2014-05-25T10:37:30Z</time>
      </trkpt>
      <trkpt lat="43.93874" lon="6.23044">
        <ele>918.9</ele>
        <time>2014-05-25T10:37:38Z</time>
      </trkpt>
      <trkpt lat="43.93874" lon="6.23042">
        <ele>919</ele>
        <time>2014-05-25T10:37:39Z</time>
      </trkpt>
      <trkpt lat="43.93879" lon="6.23026">
        <ele>921.9</ele>
        <time>2014-05-25T10:38:14Z</time>
      </trkpt>
      <trkpt lat="43.93886" lon="6.2303">
        <ele>922.8</ele>
        <time>2014-05-25T10:38:27Z</time>
      </trkpt>
      <trkpt lat="43.93895" lon="6.23035">
        <ele>922.6</ele>
        <time>2014-05-25T10:38:36Z</time>
      </trkpt>
      <trkpt lat="43.93902" lon="6.23038">
        <ele>923.5</ele>
        <time>2014-05-25T10:38:43Z</time>
      </trkpt>
      <trkpt lat="43.93904" lon="6.23038">
        <ele>923.7</ele>
        <time>2014-05-25T10:38:44Z</time>
      </trkpt>
      <trkpt lat="43.93919" lon="6.23042">
        <ele>925.8</ele>
        <time>2014-05-25T10:39:05Z</time>
      </trkpt>
      <trkpt lat="43.93928" lon="6.2304">
        <ele>926</ele>
        <time>2014-05-25T10:39:14Z</time>
      </trkpt>
      <trkpt lat="43.93934" lon="6.23033">
        <ele>926.8</ele>
        <time>2014-05-25T10:39:21Z</time>
      </trkpt>
      <trkpt lat="43.9394" lon="6.23025">
        <ele>926.6</ele>
        <time>2014-05-25T10:39:28Z</time>
      </trkpt>
      <trkpt lat="43.93948" lon="6.23019">
        <ele>927.3</ele>
        <time>2014-05-25T10:39:46Z</time>
      </trkpt>
      <trkpt lat="43.93949" lon="6.23018">
        <ele>927.1</ele>
        <time>2014-05-25T10:39:47Z</time>
      </trkpt>
      <trkpt lat="43.93962" lon="6.23023">
        <ele>927.5</ele>
        <time>2014-05-25T10:40:12Z</time>
      </trkpt>
      <trkpt lat="43.93966" lon="6.23013">
        <ele>927.9</ele>
        <time>2014-05-25T10:41:02Z</time>
      </trkpt>
      <trkpt lat="43.93966" lon="6.23012">
        <ele>928.1</ele>
        <time>2014-05-25T10:41:03Z</time>
      </trkpt>
      <trkpt lat="43.93983" lon="6.23007">
        <ele>929.3</ele>
        <time>2014-05-25T10:41:23Z</time>
      </trkpt>
      <trkpt lat="43.93991" lon="6.23003">
        <ele>929.8</ele>
        <time>2014-05-25T10:41:31Z</time>
      </trkpt>
      <trkpt lat="43.93999" lon="6.22998">
        <ele>929.8</ele>
        <time>2014-05-25T10:41:40Z</time>
      </trkpt>
      <trkpt lat="43.94006" lon="6.22995">
        <ele>931.3</ele>
        <time>2014-05-25T10:41:49Z</time>
      </trkpt>
      <trkpt lat="43.94014" lon="6.2299">
        <ele>932.9</ele>
        <time>2014-05-25T10:41:58Z</time>
      </trkpt>
      <trkpt lat="43.94021" lon="6.22982">
        <ele>933.2</ele>
        <time>2014-05-25T10:42:12Z</time>
      </trkpt>
      <trkpt lat="43.94022" lon="6.22982">
        <ele>933.2</ele>
        <time>2014-05-25T10:42:13Z</time>
      </trkpt>
      <trkpt lat="43.94034" lon="6.2297">
        <ele>933.9</ele>
        <time>2014-05-25T10:42:31Z</time>
      </trkpt>
      <trkpt lat="43.94042" lon="6.22965">
        <ele>934.7</ele>
        <time>2014-05-25T10:42:39Z</time>
      </trkpt>
      <trkpt lat="43.94048" lon="6.22958">
        <ele>935.2</ele>
        <time>2014-05-25T10:42:47Z</time>
      </trkpt>
      <trkpt lat="43.94055" lon="6.22951">
        <ele>936.7</ele>
        <time>2014-05-25T10:42:55Z</time>
      </trkpt>
      <trkpt lat="43.94061" lon="6.22944">
        <ele>937.3</ele>
        <time>2014-05-25T10:43:04Z</time>
      </trkpt>
      <trkpt lat="43.94066" lon="6.22934">
        <ele>937.1</ele>
        <time>2014-05-25T10:43:12Z</time>
      </trkpt>
      <trkpt lat="43.94071" lon="6.22925">
        <ele>938.1</ele>
        <time>2014-05-25T10:43:21Z</time>
      </trkpt>
      <trkpt lat="43.94072" lon="6.22924">
        <ele>938.5</ele>
        <time>2014-05-25T10:43:22Z</time>
      </trkpt>
      <trkpt lat="43.94083" lon="6.22908">
        <ele>940.3</ele>
        <time>2014-05-25T10:43:39Z</time>
      </trkpt>
      <trkpt lat="43.94087" lon="6.22897">
        <ele>939.9</ele>
        <time>2014-05-25T10:43:49Z</time>
      </trkpt>
      <trkpt lat="43.94094" lon="6.22891">
        <ele>941</ele>
        <time>2014-05-25T10:43:57Z</time>
      </trkpt>
      <trkpt lat="43.941" lon="6.22881">
        <ele>942</ele>
        <time>2014-05-25T10:44:06Z</time>
      </trkpt>
      <trkpt lat="43.94107" lon="6.22875">
        <ele>943.5</ele>
        <time>2014-05-25T10:44:15Z</time>
      </trkpt>
      <trkpt lat="43.94115" lon="6.22869">
        <ele>943.9</ele>
        <time>2014-05-25T10:44:26Z</time>
      </trkpt>
      <trkpt lat="43.94116" lon="6.22869">
        <ele>944.4</ele>
        <time>2014-05-25T10:44:27Z</time>
      </trkpt>
      <trkpt lat="43.94131" lon="6.22859">
        <ele>945.5</ele>
        <time>2014-05-25T10:44:52Z</time>
      </trkpt>
      <trkpt lat="43.94138" lon="6.22852">
        <ele>946.1</ele>
        <time>2014-05-25T10:45:01Z</time>
      </trkpt>
      <trkpt lat="43.94145" lon="6.22846">
        <ele>947</ele>
        <time>2014-05-25T10:45:14Z</time>
      </trkpt>
      <trkpt lat="43.94152" lon="6.22839">
        <ele>948</ele>
        <time>2014-05-25T10:45:22Z</time>
      </trkpt>
      <trkpt lat="43.94159" lon="6.22832">
        <ele>948.9</ele>
        <time>2014-05-25T10:45:30Z</time>
      </trkpt>
      <trkpt lat="43.9416" lon="6.2283">
        <ele>949</ele>
        <time>2014-05-25T10:45:31Z</time>
      </trkpt>
      <trkpt lat="43.94174" lon="6.22823">
        <ele>950.2</ele>
        <time>2014-05-25T10:45:46Z</time>
      </trkpt>
      <trkpt lat="43.94181" lon="6.22816">
        <ele>950.6</ele>
        <time>2014-05-25T10:45:53Z</time>
      </trkpt>
      <trkpt lat="43.94189" lon="6.22812">
        <ele>951.8</ele>
        <time>2014-05-25T10:46:04Z</time>
      </trkpt>
      <trkpt lat="43.94197" lon="6.22809">
        <ele>951.8</ele>
        <time>2014-05-25T10:46:12Z</time>
      </trkpt>
      <trkpt lat="43.94205" lon="6.22804">
        <ele>952.9</ele>
        <time>2014-05-25T10:46:20Z</time>
      </trkpt>
      <trkpt lat="43.94212" lon="6.228">
        <ele>953.3</ele>
        <time>2014-05-25T10:46:28Z</time>
      </trkpt>
      <trkpt lat="43.9422" lon="6.22796">
        <ele>954.3</ele>
        <time>2014-05-25T10:46:36Z</time>
      </trkpt>
      <trkpt lat="43.94221" lon="6.22796">
        <ele>954.5</ele>
        <time>2014-05-25T10:46:37Z</time>
      </trkpt>
      <trkpt lat="43.94237" lon="6.22791">
        <ele>956.4</ele>
        <time>2014-05-25T10:46:55Z</time>
      </trkpt>
      <trkpt lat="43.94244" lon="6.22786">
        <ele>957.4</ele>
        <time>2014-05-25T10:47:06Z</time>
      </trkpt>
      <trkpt lat="43.94252" lon="6.22781">
        <ele>958.2</ele>
        <time>2014-05-25T10:47:18Z</time>
      </trkpt>
      <trkpt lat="43.9426" lon="6.22775">
        <ele>958.5</ele>
        <time>2014-05-25T10:47:29Z</time>
      </trkpt>
      <trkpt lat="43.94269" lon="6.22774">
        <ele>959.4</ele>
        <time>2014-05-25T10:47:40Z</time>
      </trkpt>
      <trkpt lat="43.94269" lon="6.22774">
        <ele>959.4</ele>
        <time>2014-05-25T10:47:41Z</time>
      </trkpt>
      <trkpt lat="43.94285" lon="6.22766">
        <ele>960.3</ele>
        <time>2014-05-25T10:48:01Z</time>
      </trkpt>
      <trkpt lat="43.94293" lon="6.22762">
        <ele>961.4</ele>
        <time>2014-05-25T10:48:12Z</time>
      </trkpt>
      <trkpt lat="43.94302" lon="6.2276">
        <ele>962.3</ele>
        <time>2014-05-25T10:48:24Z</time>
      </trkpt>
      <trkpt lat="43.9431" lon="6.22764">
        <ele>962.4</ele>
        <time>2014-05-25T10:48:32Z</time>
      </trkpt>
      <trkpt lat="43.94318" lon="6.2276">
        <ele>963.4</ele>
        <time>2014-05-25T10:48:44Z</time>
      </trkpt>
      <trkpt lat="43.94319" lon="6.22758">
        <ele>963.4</ele>
        <time>2014-05-25T10:48:45Z</time>
      </trkpt>
      <trkpt lat="43.94333" lon="6.22751">
        <ele>965</ele>
        <time>2014-05-25T10:49:11Z</time>
      </trkpt>
      <trkpt lat="43.94339" lon="6.22742">
        <ele>965.9</ele>
        <time>2014-05-25T10:50:51Z</time>
      </trkpt>
      <trkpt lat="43.94339" lon="6.22742">
        <ele>966.2</ele>
        <time>2014-05-25T10:50:52Z</time>
      </trkpt>
      <trkpt lat="43.94355" lon="6.22745">
        <ele>967.1</ele>
        <time>2014-05-25T10:51:19Z</time>
      </trkpt>
      <trkpt lat="43.94362" lon="6.22752">
        <ele>967.5</ele>
        <time>2014-05-25T10:51:34Z</time>
      </trkpt>
      <trkpt lat="43.94371" lon="6.22757">
        <ele>967.5</ele>
        <time>2014-05-25T10:51:48Z</time>
      </trkpt>
      <trkpt lat="43.9438" lon="6.22758">
        <ele>966.9</ele>
        <time>2014-05-25T10:52:19Z</time>
      </trkpt>
      <trkpt lat="43.9438" lon="6.22758">
        <ele>966.9</ele>
        <time>2014-05-25T10:52:20Z</time>
      </trkpt>
      <trkpt lat="43.94386" lon="6.22767">
        <ele>966.3</ele>
        <time>2014-05-25T11:03:51Z</time>
      </trkpt>
      <trkpt lat="43.94388" lon="6.22764">
        <ele>969</ele>
        <time>2014-05-25T11:25:07Z</time>
      </trkpt>
      <trkpt lat="43.94388" lon="6.22764">
        <ele>968.9</ele>
        <time>2014-05-25T11:25:08Z</time>
      </trkpt>
      <trkpt lat="43.94379" lon="6.22758">
        <ele>966.8</ele>
        <time>2014-05-25T11:50:45Z</time>
      </trkpt>
      <trkpt lat="43.94364" lon="6.22751">
        <ele>967.1</ele>
        <time>2014-05-25T11:51:09Z</time>
      </trkpt>
      <trkpt lat="43.94358" lon="6.22742">
        <ele>967.9</ele>
        <time>2014-05-25T11:51:30Z</time>
      </trkpt>
      <trkpt lat="43.9435" lon="6.22742">
        <ele>967.8</ele>
        <time>2014-05-25T11:51:49Z</time>
      </trkpt>
      <trkpt lat="43.94349" lon="6.22741">
        <ele>967.8</ele>
        <time>2014-05-25T11:51:50Z</time>
      </trkpt>
      <trkpt lat="43.94336" lon="6.22729">
        <ele>967.2</ele>
        <time>2014-05-25T11:52:16Z</time>
      </trkpt>
      <trkpt lat="43.94333" lon="6.22719">
        <ele>966.7</ele>
        <time>2014-05-25T11:52:27Z</time>
      </trkpt>
      <trkpt lat="43.94327" lon="6.2271">
        <ele>966.1</ele>
        <time>2014-05-25T11:52:43Z</time>
      </trkpt>
      <trkpt lat="43.9432" lon="6.22704">
        <ele>966.8</ele>
        <time>2014-05-25T11:52:52Z</time>
      </trkpt>
      <trkpt lat="43.94319" lon="6.22703">
        <ele>967</ele>
        <time>2014-05-25T11:52:53Z</time>
      </trkpt>
      <trkpt lat="43.94307" lon="6.2269">
        <ele>967.9</ele>
        <time>2014-05-25T11:53:13Z</time>
      </trkpt>
      <trkpt lat="43.94298" lon="6.22687">
        <ele>967.9</ele>
        <time>2014-05-25T11:53:45Z</time>
      </trkpt>
      <trkpt lat="43.94295" lon="6.22676">
        <ele>968.4</ele>
        <time>2014-05-25T11:54:04Z</time>
      </trkpt>
      <trkpt lat="43.94294" lon="6.22675">
        <ele>968</ele>
        <time>2014-05-25T11:54:05Z</time>
      </trkpt>
      <trkpt lat="43.9428" lon="6.22662">
        <ele>969.4</ele>
        <time>2014-05-25T11:55:05Z</time>
      </trkpt>
      <trkpt lat="43.94279" lon="6.22662">
        <ele>969.6</ele>
        <time>2014-05-25T11:55:06Z</time>
      </trkpt>
      <trkpt lat="43.94266" lon="6.22654">
        <ele>968.6</ele>
        <time>2014-05-25T11:56:21Z</time>
      </trkpt>
      <trkpt lat="43.94265" lon="6.22654">
        <ele>968.8</ele>
        <time>2014-05-25T11:56:22Z</time>
      </trkpt>
      <trkpt lat="43.94257" lon="6.22638">
        <ele>968.8</ele>
        <time>2014-05-25T11:56:35Z</time>
      </trkpt>
      <trkpt lat="43.9425" lon="6.22631">
        <ele>968.8</ele>
        <time>2014-05-25T11:56:55Z</time>
      </trkpt>
      <trkpt lat="43.94244" lon="6.22612">
        <ele>966</ele>
        <time>2014-05-25T11:57:16Z</time>
      </trkpt>
      <trkpt lat="43.94236" lon="6.22606">
        <ele>966</ele>
        <time>2014-05-25T11:57:28Z</time>
      </trkpt>
      <trkpt lat="43.94235" lon="6.22605">
        <ele>966.8</ele>
        <time>2014-05-25T11:57:30Z</time>
      </trkpt>
      <trkpt lat="43.94226" lon="6.22586">
        <ele>966.2</ele>
        <time>2014-05-25T11:57:41Z</time>
      </trkpt>
      <trkpt lat="43.94221" lon="6.22591">
        <ele>965.8</ele>
        <time>2014-05-25T11:57:47Z</time>
      </trkpt>
      <trkpt lat="43.94218" lon="6.226">
        <ele>965.9</ele>
        <time>2014-05-25T11:57:50Z</time>
      </trkpt>
      <trkpt lat="43.9421" lon="6.22605">
        <ele>965.3</ele>
        <time>2014-05-25T11:57:58Z</time>
      </trkpt>
      <trkpt lat="43.94202" lon="6.22605">
        <ele>965.3</ele>
        <time>2014-05-25T11:58:03Z</time>
      </trkpt>
      <trkpt lat="43.94193" lon="6.22605">
        <ele>966</ele>
        <time>2014-05-25T11:58:08Z</time>
      </trkpt>
      <trkpt lat="43.94192" lon="6.22597">
        <ele>965</ele>
        <time>2014-05-25T11:58:16Z</time>
      </trkpt>
      <trkpt lat="43.94192" lon="6.22587">
        <ele>965.2</ele>
        <time>2014-05-25T11:58:17Z</time>
      </trkpt>
      <trkpt lat="43.94192" lon="6.22575">
        <ele>964.2</ele>
        <time>2014-05-25T11:58:26Z</time>
      </trkpt>
      <trkpt lat="43.94187" lon="6.22565">
        <ele>965.2</ele>
        <time>2014-05-25T11:58:34Z</time>
      </trkpt>
      <trkpt lat="43.94187" lon="6.22564">
        <ele>965.3</ele>
        <time>2014-05-25T11:58:35Z</time>
      </trkpt>
      <trkpt lat="43.94179" lon="6.22545">
        <ele>964.1</ele>
        <time>2014-05-25T11:58:51Z</time>
      </trkpt>
      <trkpt lat="43.94176" lon="6.22535">
        <ele>963.2</ele>
        <time>2014-05-25T11:58:57Z</time>
      </trkpt>
      <trkpt lat="43.94171" lon="6.22527">
        <ele>963.8</ele>
        <time>2014-05-25T11:59:01Z</time>
      </trkpt>
      <trkpt lat="43.94164" lon="6.22519">
        <ele>963.4</ele>
        <time>2014-05-25T11:59:09Z</time>
      </trkpt>
      <trkpt lat="43.94164" lon="6.22507">
        <ele>963.5</ele>
        <time>2014-05-25T11:59:18Z</time>
      </trkpt>
      <trkpt lat="43.94166" lon="6.22495">
        <ele>962.1</ele>
        <time>2014-05-25T11:59:24Z</time>
      </trkpt>
      <trkpt lat="43.94168" lon="6.22484">
        <ele>962.3</ele>
        <time>2014-05-25T11:59:31Z</time>
      </trkpt>
      <trkpt lat="43.9417" lon="6.22472">
        <ele>961.8</ele>
        <time>2014-05-25T12:00:02Z</time>
      </trkpt>
      <trkpt lat="43.94169" lon="6.22472">
        <ele>962.1</ele>
        <time>2014-05-25T12:00:03Z</time>
      </trkpt>
      <trkpt lat="43.94155" lon="6.22464">
        <ele>960.7</ele>
        <time>2014-05-25T12:00:14Z</time>
      </trkpt>
      <trkpt lat="43.94149" lon="6.22456">
        <ele>959.8</ele>
        <time>2014-05-25T12:00:20Z</time>
      </trkpt>
      <trkpt lat="43.94144" lon="6.22447">
        <ele>961.3</ele>
        <time>2014-05-25T12:00:29Z</time>
      </trkpt>
      <trkpt lat="43.94151" lon="6.2244">
        <ele>961.1</ele>
        <time>2014-05-25T12:00:38Z</time>
      </trkpt>
      <trkpt lat="43.94156" lon="6.2243">
        <ele>960.9</ele>
        <time>2014-05-25T12:00:43Z</time>
      </trkpt>
      <trkpt lat="43.94159" lon="6.22419">
        <ele>959.6</ele>
        <time>2014-05-25T12:00:50Z</time>
      </trkpt>
      <trkpt lat="43.9416" lon="6.22407">
        <ele>959.4</ele>
        <time>2014-05-25T12:00:58Z</time>
      </trkpt>
      <trkpt lat="43.94156" lon="6.22396">
        <ele>959.5</ele>
        <time>2014-05-25T12:01:06Z</time>
      </trkpt>
      <trkpt lat="43.94156" lon="6.22395">
        <ele>959.8</ele>
        <time>2014-05-25T12:01:07Z</time>
      </trkpt>
      <trkpt lat="43.9415" lon="6.22376">
        <ele>958.1</ele>
        <time>2014-05-25T12:01:19Z</time>
      </trkpt>
      <trkpt lat="43.94144" lon="6.22369">
        <ele>957.9</ele>
        <time>2014-05-25T12:01:25Z</time>
      </trkpt>
      <trkpt lat="43.94137" lon="6.22361">
        <ele>957.7</ele>
        <time>2014-05-25T12:01:34Z</time>
      </trkpt>
      <trkpt lat="43.94134" lon="6.2235">
        <ele>957.5</ele>
        <time>2014-05-25T12:01:41Z</time>
      </trkpt>
      <trkpt lat="43.94134" lon="6.22338">
        <ele>956.9</ele>
        <time>2014-05-25T12:01:47Z</time>
      </trkpt>
      <trkpt lat="43.94128" lon="6.22331">
        <ele>957</ele>
        <time>2014-05-25T12:01:55Z</time>
      </trkpt>
      <trkpt lat="43.94125" lon="6.22319">
        <ele>957</ele>
        <time>2014-05-25T12:02:07Z</time>
      </trkpt>
      <trkpt lat="43.94124" lon="6.22318">
        <ele>956.4</ele>
        <time>2014-05-25T12:02:08Z</time>
      </trkpt>
      <trkpt lat="43.94114" lon="6.22301">
        <ele>956.2</ele>
        <time>2014-05-25T12:02:29Z</time>
      </trkpt>
      <trkpt lat="43.94107" lon="6.22294">
        <ele>955.1</ele>
        <time>2014-05-25T12:02:35Z</time>
      </trkpt>
      <trkpt lat="43.94102" lon="6.22284">
        <ele>956</ele>
        <time>2014-05-25T12:02:44Z</time>
      </trkpt>
      <trkpt lat="43.94099" lon="6.22272">
        <ele>955.4</ele>
        <time>2014-05-25T12:02:58Z</time>
      </trkpt>
      <trkpt lat="43.94098" lon="6.2226">
        <ele>954.1</ele>
        <time>2014-05-25T12:03:09Z</time>
      </trkpt>
      <trkpt lat="43.94097" lon="6.22259">
        <ele>953.8</ele>
        <time>2014-05-25T12:03:10Z</time>
      </trkpt>
      <trkpt lat="43.94086" lon="6.22245">
        <ele>953.3</ele>
        <time>2014-05-25T12:03:22Z</time>
      </trkpt>
      <trkpt lat="43.94077" lon="6.22245">
        <ele>952.8</ele>
        <time>2014-05-25T12:03:29Z</time>
      </trkpt>
      <trkpt lat="43.94068" lon="6.22246">
        <ele>952.3</ele>
        <time>2014-05-25T12:03:37Z</time>
      </trkpt>
      <trkpt lat="43.94062" lon="6.2224">
        <ele>951.3</ele>
        <time>2014-05-25T12:03:45Z</time>
      </trkpt>
      <trkpt lat="43.94053" lon="6.2224">
        <ele>950.5</ele>
        <time>2014-05-25T12:03:53Z</time>
      </trkpt>
      <trkpt lat="43.94054" lon="6.22229">
        <ele>950</ele>
        <time>2014-05-25T12:04:11Z</time>
      </trkpt>
      <trkpt lat="43.94054" lon="6.22227">
        <ele>950.1</ele>
        <time>2014-05-25T12:04:12Z</time>
      </trkpt>
      <trkpt lat="43.94041" lon="6.2222">
        <ele>948.5</ele>
        <time>2014-05-25T12:04:26Z</time>
      </trkpt>
      <trkpt lat="43.94035" lon="6.22214">
        <ele>948.6</ele>
        <time>2014-05-25T12:04:33Z</time>
      </trkpt>
      <trkpt lat="43.9403" lon="6.22205">
        <ele>947.2</ele>
        <time>2014-05-25T12:04:38Z</time>
      </trkpt>
      <trkpt lat="43.94024" lon="6.22196">
        <ele>946.8</ele>
        <time>2014-05-25T12:04:45Z</time>
      </trkpt>
      <trkpt lat="43.94021" lon="6.22184">
        <ele>945.4</ele>
        <time>2014-05-25T12:05:06Z</time>
      </trkpt>
      <trkpt lat="43.94017" lon="6.22174">
        <ele>944.7</ele>
        <time>2014-05-25T12:05:15Z</time>
      </trkpt>
      <trkpt lat="43.94016" lon="6.22173">
        <ele>944.7</ele>
        <time>2014-05-25T12:05:16Z</time>
      </trkpt>
      <trkpt lat="43.94008" lon="6.22153">
        <ele>944</ele>
        <time>2014-05-25T12:05:36Z</time>
      </trkpt>
      <trkpt lat="43.94007" lon="6.22141">
        <ele>943.7</ele>
        <time>2014-05-25T12:05:48Z</time>
      </trkpt>
      <trkpt lat="43.94006" lon="6.2213">
        <ele>942.7</ele>
        <time>2014-05-25T12:05:56Z</time>
      </trkpt>
      <trkpt lat="43.94004" lon="6.22118">
        <ele>942.3</ele>
        <time>2014-05-25T12:06:04Z</time>
      </trkpt>
      <trkpt lat="43.94005" lon="6.22107">
        <ele>941.1</ele>
        <time>2014-05-25T12:06:11Z</time>
      </trkpt>
      <trkpt lat="43.94006" lon="6.22095">
        <ele>939.6</ele>
        <time>2014-05-25T12:06:21Z</time>
      </trkpt>
      <trkpt lat="43.94006" lon="6.22094">
        <ele>940.2</ele>
        <time>2014-05-25T12:06:22Z</time>
      </trkpt>
      <trkpt lat="43.93999" lon="6.22074">
        <ele>938.6</ele>
        <time>2014-05-25T12:06:40Z</time>
      </trkpt>
      <trkpt lat="43.94004" lon="6.22063">
        <ele>937.3</ele>
        <time>2014-05-25T12:06:47Z</time>
      </trkpt>
      <trkpt lat="43.94007" lon="6.22052">
        <ele>935.9</ele>
        <time>2014-05-25T12:07:04Z</time>
      </trkpt>
      <trkpt lat="43.94006" lon="6.2204">
        <ele>934.9</ele>
        <time>2014-05-25T12:07:14Z</time>
      </trkpt>
      <trkpt lat="43.94004" lon="6.22028">
        <ele>934.5</ele>
        <time>2014-05-25T12:07:27Z</time>
      </trkpt>
      <trkpt lat="43.94005" lon="6.22026">
        <ele>934.3</ele>
        <time>2014-05-25T12:07:28Z</time>
      </trkpt>
      <trkpt lat="43.9401" lon="6.22006">
        <ele>931.8</ele>
        <time>2014-05-25T12:07:49Z</time>
      </trkpt>
      <trkpt lat="43.94007" lon="6.21995">
        <ele>931.5</ele>
        <time>2014-05-25T12:07:58Z</time>
      </trkpt>
      <trkpt lat="43.94007" lon="6.21983">
        <ele>930.5</ele>
        <time>2014-05-25T12:08:09Z</time>
      </trkpt>
      <trkpt lat="43.94008" lon="6.21971">
        <ele>930</ele>
        <time>2014-05-25T12:08:17Z</time>
      </trkpt>
      <trkpt lat="43.94007" lon="6.21959">
        <ele>928.9</ele>
        <time>2014-05-25T12:08:27Z</time>
      </trkpt>
      <trkpt lat="43.94005" lon="6.21948">
        <ele>928.4</ele>
        <time>2014-05-25T12:08:36Z</time>
      </trkpt>
      <trkpt lat="43.94004" lon="6.21946">
        <ele>928.4</ele>
        <time>2014-05-25T12:08:37Z</time>
      </trkpt>
      <trkpt lat="43.94006" lon="6.21925">
        <ele>926.7</ele>
        <time>2014-05-25T12:08:54Z</time>
      </trkpt>
      <trkpt lat="43.9401" lon="6.21914">
        <ele>925.4</ele>
        <time>2014-05-25T12:09:02Z</time>
      </trkpt>
      <trkpt lat="43.94013" lon="6.21903">
        <ele>924.5</ele>
        <time>2014-05-25T12:09:13Z</time>
      </trkpt>
      <trkpt lat="43.94009" lon="6.21892">
        <ele>923.8</ele>
        <time>2014-05-25T12:09:30Z</time>
      </trkpt>
      <trkpt lat="43.94013" lon="6.2188">
        <ele>924.1</ele>
        <time>2014-05-25T12:09:37Z</time>
      </trkpt>
      <trkpt lat="43.94013" lon="6.2188">
        <ele>923.8</ele>
        <time>2014-05-25T12:09:38Z</time>
      </trkpt>
      <trkpt lat="43.94014" lon="6.21856">
        <ele>920.8</ele>
        <time>2014-05-25T12:09:55Z</time>
      </trkpt>
      <trkpt lat="43.94011" lon="6.21845">
        <ele>921.2</ele>
        <time>2014-05-25T12:10:03Z</time>
      </trkpt>
      <trkpt lat="43.94009" lon="6.21834">
        <ele>920.2</ele>
        <time>2014-05-25T12:10:11Z</time>
      </trkpt>
      <trkpt lat="43.94012" lon="6.21824">
        <ele>919.4</ele>
        <time>2014-05-25T12:10:18Z</time>
      </trkpt>
      <trkpt lat="43.94013" lon="6.21812">
        <ele>919</ele>
        <time>2014-05-25T12:10:25Z</time>
      </trkpt>
      <trkpt lat="43.94012" lon="6.21801">
        <ele>918.1</ele>
        <time>2014-05-25T12:10:34Z</time>
      </trkpt>
      <trkpt lat="43.94012" lon="6.21789">
        <ele>917.5</ele>
        <time>2014-05-25T12:10:42Z</time>
      </trkpt>
      <trkpt lat="43.94011" lon="6.21788">
        <ele>917.6</ele>
        <time>2014-05-25T12:10:43Z</time>
      </trkpt>
      <trkpt lat="43.94007" lon="6.21767">
        <ele>915.1</ele>
        <time>2014-05-25T12:10:56Z</time>
      </trkpt>
      <trkpt lat="43.94007" lon="6.21755">
        <ele>915.5</ele>
        <time>2014-05-25T12:11:07Z</time>
      </trkpt>
      <trkpt lat="43.94008" lon="6.21745">
        <ele>914.8</ele>
        <time>2014-05-25T12:11:14Z</time>
      </trkpt>
      <trkpt lat="43.94006" lon="6.21734">
        <ele>914</ele>
        <time>2014-05-25T12:11:21Z</time>
      </trkpt>
      <trkpt lat="43.94005" lon="6.21722">
        <ele>912.3</ele>
        <time>2014-05-25T12:11:28Z</time>
      </trkpt>
      <trkpt lat="43.94002" lon="6.21712">
        <ele>911</ele>
        <time>2014-05-25T12:11:37Z</time>
      </trkpt>
      <trkpt lat="43.93999" lon="6.21701">
        <ele>910.4</ele>
        <time>2014-05-25T12:11:46Z</time>
      </trkpt>
      <trkpt lat="43.93998" lon="6.21699">
        <ele>910.5</ele>
        <time>2014-05-25T12:11:47Z</time>
      </trkpt>
      <trkpt lat="43.93994" lon="6.2168">
        <ele>910</ele>
        <time>2014-05-25T12:12:11Z</time>
      </trkpt>
      <trkpt lat="43.93994" lon="6.21669">
        <ele>908.5</ele>
        <time>2014-05-25T12:12:21Z</time>
      </trkpt>
      <trkpt lat="43.93995" lon="6.21657">
        <ele>907.6</ele>
        <time>2014-05-25T12:12:29Z</time>
      </trkpt>
      <trkpt lat="43.93993" lon="6.21646">
        <ele>907.3</ele>
        <time>2014-05-25T12:12:36Z</time>
      </trkpt>
      <trkpt lat="43.93992" lon="6.21634">
        <ele>906.6</ele>
        <time>2014-05-25T12:12:42Z</time>
      </trkpt>
      <trkpt lat="43.93985" lon="6.21627">
        <ele>905.7</ele>
        <time>2014-05-25T12:12:49Z</time>
      </trkpt>
      <trkpt lat="43.93984" lon="6.21626">
        <ele>905.4</ele>
        <time>2014-05-25T12:12:50Z</time>
      </trkpt>
      <trkpt lat="43.93981" lon="6.21604">
        <ele>903.9</ele>
        <time>2014-05-25T12:13:08Z</time>
      </trkpt>
      <trkpt lat="43.9398" lon="6.21593">
        <ele>902.6</ele>
        <time>2014-05-25T12:13:13Z</time>
      </trkpt>
      <trkpt lat="43.93975" lon="6.21583">
        <ele>901.4</ele>
        <time>2014-05-25T12:13:22Z</time>
      </trkpt>
      <trkpt lat="43.93973" lon="6.21571">
        <ele>900.5</ele>
        <time>2014-05-25T12:13:29Z</time>
      </trkpt>
      <trkpt lat="43.93972" lon="6.21559">
        <ele>900.1</ele>
        <time>2014-05-25T12:13:42Z</time>
      </trkpt>
      <trkpt lat="43.93969" lon="6.21549">
        <ele>898.2</ele>
        <time>2014-05-25T12:13:50Z</time>
      </trkpt>
      <trkpt lat="43.93968" lon="6.21547">
        <ele>897.7</ele>
        <time>2014-05-25T12:13:51Z</time>
      </trkpt>
      <trkpt lat="43.93962" lon="6.21527">
        <ele>896.8</ele>
        <time>2014-05-25T12:14:03Z</time>
      </trkpt>
      <trkpt lat="43.93959" lon="6.21515">
        <ele>895.5</ele>
        <time>2014-05-25T12:14:11Z</time>
      </trkpt>
      <trkpt lat="43.93956" lon="6.21504">
        <ele>894.9</ele>
        <time>2014-05-25T12:14:19Z</time>
      </trkpt>
      <trkpt lat="43.93951" lon="6.21496">
        <ele>893.8</ele>
        <time>2014-05-25T12:14:24Z</time>
      </trkpt>
      <trkpt lat="43.93946" lon="6.21486">
        <ele>894</ele>
        <time>2014-05-25T12:14:32Z</time>
      </trkpt>
      <trkpt lat="43.93942" lon="6.21476">
        <ele>893.1</ele>
        <time>2014-05-25T12:14:38Z</time>
      </trkpt>
      <trkpt lat="43.93938" lon="6.21467">
        <ele>892.7</ele>
        <time>2014-05-25T12:14:44Z</time>
      </trkpt>
      <trkpt lat="43.93934" lon="6.21457">
        <ele>892.6</ele>
        <time>2014-05-25T12:14:50Z</time>
      </trkpt>
      <trkpt lat="43.93928" lon="6.21448">
        <ele>892.2</ele>
        <time>2014-05-25T12:15:00Z</time>
      </trkpt>
      <trkpt lat="43.93927" lon="6.21447">
        <ele>892.3</ele>
        <time>2014-05-25T12:15:01Z</time>
      </trkpt>
      <trkpt lat="43.93916" lon="6.21431">
        <ele>890.7</ele>
        <time>2014-05-25T12:15:14Z</time>
      </trkpt>
      <trkpt lat="43.93913" lon="6.21421">
        <ele>890.8</ele>
        <time>2014-05-25T12:15:20Z</time>
      </trkpt>
      <trkpt lat="43.93909" lon="6.2141">
        <ele>890</ele>
        <time>2014-05-25T12:15:27Z</time>
      </trkpt>
      <trkpt lat="43.93905" lon="6.21401">
        <ele>889.2</ele>
        <time>2014-05-25T12:15:35Z</time>
      </trkpt>
      <trkpt lat="43.93897" lon="6.21397">
        <ele>888.2</ele>
        <time>2014-05-25T12:15:43Z</time>
      </trkpt>
      <trkpt lat="43.93891" lon="6.21387">
        <ele>887</ele>
        <time>2014-05-25T12:15:51Z</time>
      </trkpt>
      <trkpt lat="43.93884" lon="6.21384">
        <ele>886.1</ele>
        <time>2014-05-25T12:15:56Z</time>
      </trkpt>
      <trkpt lat="43.93875" lon="6.2138">
        <ele>885</ele>
        <time>2014-05-25T12:16:04Z</time>
      </trkpt>
      <trkpt lat="43.93874" lon="6.2138">
        <ele>884.8</ele>
        <time>2014-05-25T12:16:05Z</time>
      </trkpt>
      <trkpt lat="43.93863" lon="6.21364">
        <ele>883.6</ele>
        <time>2014-05-25T12:16:22Z</time>
      </trkpt>
      <trkpt lat="43.93857" lon="6.21356">
        <ele>883.5</ele>
        <time>2014-05-25T12:16:28Z</time>
      </trkpt>
      <trkpt lat="43.9385" lon="6.21349">
        <ele>882.4</ele>
        <time>2014-05-25T12:16:35Z</time>
      </trkpt>
      <trkpt lat="43.93843" lon="6.21343">
        <ele>881.4</ele>
        <time>2014-05-25T12:16:43Z</time>
      </trkpt>
      <trkpt lat="43.93835" lon="6.21336">
        <ele>880.7</ele>
        <time>2014-05-25T12:16:50Z</time>
      </trkpt>
      <trkpt lat="43.93828" lon="6.21331">
        <ele>879.6</ele>
        <time>2014-05-25T12:16:57Z</time>
      </trkpt>
      <trkpt lat="43.93821" lon="6.21325">
        <ele>878.7</ele>
        <time>2014-05-25T12:17:07Z</time>
      </trkpt>
      <trkpt lat="43.9382" lon="6.21324">
        <ele>878.5</ele>
        <time>2014-05-25T12:17:08Z</time>
      </trkpt>
      <trkpt lat="43.93809" lon="6.21309">
        <ele>877.6</ele>
        <time>2014-05-25T12:17:19Z</time>
      </trkpt>
      <trkpt lat="43.93802" lon="6.21302">
        <ele>875.3</ele>
        <time>2014-05-25T12:17:28Z</time>
      </trkpt>
      <trkpt lat="43.93796" lon="6.21294">
        <ele>874.5</ele>
        <time>2014-05-25T12:17:35Z</time>
      </trkpt>
      <trkpt lat="43.93789" lon="6.21287">
        <ele>873.3</ele>
        <time>2014-05-25T12:17:45Z</time>
      </trkpt>
      <trkpt lat="43.93782" lon="6.21282">
        <ele>872.2</ele>
        <time>2014-05-25T12:17:53Z</time>
      </trkpt>
      <trkpt lat="43.93776" lon="6.21275">
        <ele>871.3</ele>
        <time>2014-05-25T12:18:00Z</time>
      </trkpt>
      <trkpt lat="43.93769" lon="6.21268">
        <ele>870.9</ele>
        <time>2014-05-25T12:18:05Z</time>
      </trkpt>
      <trkpt lat="43.93762" lon="6.21263">
        <ele>869.7</ele>
        <time>2014-05-25T12:18:12Z</time>
      </trkpt>
      <trkpt lat="43.93761" lon="6.21262">
        <ele>869.5</ele>
        <time>2014-05-25T12:18:13Z</time>
      </trkpt>
      <trkpt lat="43.93745" lon="6.21254">
        <ele>867.9</ele>
        <time>2014-05-25T12:18:26Z</time>
      </trkpt>
      <trkpt lat="43.93738" lon="6.21251">
        <ele>867</ele>
        <time>2014-05-25T12:18:32Z</time>
      </trkpt>
      <trkpt lat="43.93729" lon="6.2125">
        <ele>866</ele>
        <time>2014-05-25T12:18:38Z</time>
      </trkpt>
      <trkpt lat="43.9372" lon="6.21248">
        <ele>865.5</ele>
        <time>2014-05-25T12:18:44Z</time>
      </trkpt>
      <trkpt lat="43.93712" lon="6.21244">
        <ele>864.8</ele>
        <time>2014-05-25T12:18:50Z</time>
      </trkpt>
      <trkpt lat="43.93704" lon="6.21244">
        <ele>863.9</ele>
        <time>2014-05-25T12:18:57Z</time>
      </trkpt>
      <trkpt lat="43.93696" lon="6.21243">
        <ele>863.1</ele>
        <time>2014-05-25T12:19:06Z</time>
      </trkpt>
      <trkpt lat="43.93687" lon="6.21243">
        <ele>862.5</ele>
        <time>2014-05-25T12:19:13Z</time>
      </trkpt>
      <trkpt lat="43.93686" lon="6.21244">
        <ele>862.3</ele>
        <time>2014-05-25T12:19:14Z</time>
      </trkpt>
      <trkpt lat="43.93671" lon="6.21247">
        <ele>859.9</ele>
        <time>2014-05-25T12:19:30Z</time>
      </trkpt>
      <trkpt lat="43.93664" lon="6.21253">
        <ele>859.8</ele>
        <time>2014-05-25T12:19:43Z</time>
      </trkpt>
      <trkpt lat="43.93656" lon="6.21251">
        <ele>858.3</ele>
        <time>2014-05-25T12:19:53Z</time>
      </trkpt>
      <trkpt lat="43.93648" lon="6.21254">
        <ele>857.7</ele>
        <time>2014-05-25T12:19:58Z</time>
      </trkpt>
      <trkpt lat="43.9364" lon="6.21252">
        <ele>857.7</ele>
        <time>2014-05-25T12:20:04Z</time>
      </trkpt>
      <trkpt lat="43.93632" lon="6.21252">
        <ele>857</ele>
        <time>2014-05-25T12:20:11Z</time>
      </trkpt>
      <trkpt lat="43.93624" lon="6.21246">
        <ele>855</ele>
        <time>2014-05-25T12:20:19Z</time>
      </trkpt>
      <trkpt lat="43.93622" lon="6.21246">
        <ele>854.8</ele>
        <time>2014-05-25T12:20:20Z</time>
      </trkpt>
      <trkpt lat="43.93607" lon="6.21247">
        <ele>853.5</ele>
        <time>2014-05-25T12:20:30Z</time>
      </trkpt>
      <trkpt lat="43.93599" lon="6.21248">
        <ele>852.8</ele>
        <time>2014-05-25T12:20:36Z</time>
      </trkpt>
      <trkpt lat="43.93591" lon="6.2125">
        <ele>852.4</ele>
        <time>2014-05-25T12:20:42Z</time>
      </trkpt>
      <trkpt lat="43.93583" lon="6.21249">
        <ele>851.7</ele>
        <time>2014-05-25T12:20:47Z</time>
      </trkpt>
      <trkpt lat="43.93574" lon="6.21251">
        <ele>851</ele>
        <time>2014-05-25T12:20:53Z</time>
      </trkpt>
      <trkpt lat="43.93566" lon="6.21245">
        <ele>849.5</ele>
        <time>2014-05-25T12:21:03Z</time>
      </trkpt>
      <trkpt lat="43.93559" lon="6.21241">
        <ele>849</ele>
        <time>2014-05-25T12:21:11Z</time>
      </trkpt>
      <trkpt lat="43.9355" lon="6.21239">
        <ele>848.1</ele>
        <time>2014-05-25T12:21:22Z</time>
      </trkpt>
      <trkpt lat="43.93549" lon="6.21238">
        <ele>847.9</ele>
        <time>2014-05-25T12:21:23Z</time>
      </trkpt>
      <trkpt lat="43.93535" lon="6.21232">
        <ele>846.8</ele>
        <time>2014-05-25T12:21:40Z</time>
      </trkpt>
      <trkpt lat="43.93526" lon="6.21235">
        <ele>845.9</ele>
        <time>2014-05-25T12:21:47Z</time>
      </trkpt>
      <trkpt lat="43.93518" lon="6.21231">
        <ele>846</ele>
        <time>2014-05-25T12:22:04Z</time>
      </trkpt>
      <trkpt lat="43.93509" lon="6.21228">
        <ele>844.7</ele>
        <time>2014-05-25T12:22:22Z</time>
      </trkpt>
      <trkpt lat="43.93504" lon="6.21218">
        <ele>843.4</ele>
        <time>2014-05-25T12:22:49Z</time>
      </trkpt>
      <trkpt lat="43.93504" lon="6.21218">
        <ele>843.5</ele>
        <time>2014-05-25T12:22:50Z</time>
      </trkpt>
      <trkpt lat="43.93518" lon="6.21229">
        <ele>842.8</ele>
        <time>2014-05-25T12:23:54Z</time>
      </trkpt>
      <trkpt lat="43.93519" lon="6.2123">
        <ele>842.9</ele>
        <time>2014-05-25T12:23:55Z</time>
      </trkpt>
      <trkpt lat="43.93535" lon="6.21236">
        <ele>841.7</ele>
        <time>2014-05-25T12:24:14Z</time>
      </trkpt>
      <trkpt lat="43.93543" lon="6.21236">
        <ele>840.9</ele>
        <time>2014-05-25T12:24:24Z</time>
      </trkpt>
      <trkpt lat="43.93551" lon="6.21237">
        <ele>839.7</ele>
        <time>2014-05-25T12:24:31Z</time>
      </trkpt>
      <trkpt lat="43.9356" lon="6.21236">
        <ele>838.6</ele>
        <time>2014-05-25T12:24:39Z</time>
      </trkpt>
      <trkpt lat="43.93568" lon="6.21233">
        <ele>837.5</ele>
        <time>2014-05-25T12:24:47Z</time>
      </trkpt>
      <trkpt lat="43.93576" lon="6.21227">
        <ele>836.7</ele>
        <time>2014-05-25T12:24:54Z</time>
      </trkpt>
      <trkpt lat="43.93581" lon="6.21217">
        <ele>835.9</ele>
        <time>2014-05-25T12:25:01Z</time>
      </trkpt>
      <trkpt lat="43.93583" lon="6.21216">
        <ele>835.7</ele>
        <time>2014-05-25T12:25:02Z</time>
      </trkpt>
      <trkpt lat="43.93597" lon="6.21208">
        <ele>833.4</ele>
        <time>2014-05-25T12:25:16Z</time>
      </trkpt>
      <trkpt lat="43.93603" lon="6.212">
        <ele>833</ele>
        <time>2014-05-25T12:25:22Z</time>
      </trkpt>
      <trkpt lat="43.93608" lon="6.2119">
        <ele>830.1</ele>
        <time>2014-05-25T12:25:45Z</time>
      </trkpt>
      <trkpt lat="43.93614" lon="6.2118">
        <ele>828.6</ele>
        <time>2014-05-25T12:25:54Z</time>
      </trkpt>
      <trkpt lat="43.93619" lon="6.21173">
        <ele>827.9</ele>
        <time>2014-05-25T12:25:59Z</time>
      </trkpt>
      <trkpt lat="43.93621" lon="6.21161">
        <ele>826.9</ele>
        <time>2014-05-25T12:26:11Z</time>
      </trkpt>
      <trkpt lat="43.93621" lon="6.2116">
        <ele>826.7</ele>
        <time>2014-05-25T12:26:12Z</time>
      </trkpt>
      <trkpt lat="43.93632" lon="6.21144">
        <ele>825.5</ele>
        <time>2014-05-25T12:26:28Z</time>
      </trkpt>
      <trkpt lat="43.93638" lon="6.21136">
        <ele>824.5</ele>
        <time>2014-05-25T12:26:35Z</time>
      </trkpt>
      <trkpt lat="43.93647" lon="6.21135">
        <ele>823.2</ele>
        <time>2014-05-25T12:26:45Z</time>
      </trkpt>
      <trkpt lat="43.93653" lon="6.21128">
        <ele>823.4</ele>
        <time>2014-05-25T12:26:53Z</time>
      </trkpt>
      <trkpt lat="43.93659" lon="6.2112">
        <ele>823.6</ele>
        <time>2014-05-25T12:26:57Z</time>
      </trkpt>
      <trkpt lat="43.93666" lon="6.21114">
        <ele>823.8</ele>
        <time>2014-05-25T12:27:04Z</time>
      </trkpt>
      <trkpt lat="43.93673" lon="6.21108">
        <ele>823.2</ele>
        <time>2014-05-25T12:27:10Z</time>
      </trkpt>
      <trkpt lat="43.93675" lon="6.21097">
        <ele>822.7</ele>
        <time>2014-05-25T12:27:16Z</time>
      </trkpt>
      <trkpt lat="43.93676" lon="6.21094">
        <ele>822.3</ele>
        <time>2014-05-25T12:27:17Z</time>
      </trkpt>
      <trkpt lat="43.93683" lon="6.21077">
        <ele>819.8</ele>
        <time>2014-05-25T12:27:29Z</time>
      </trkpt>
      <trkpt lat="43.93685" lon="6.21065">
        <ele>819</ele>
        <time>2014-05-25T12:27:37Z</time>
      </trkpt>
      <trkpt lat="43.9369" lon="6.21055">
        <ele>817.7</ele>
        <time>2014-05-25T12:27:46Z</time>
      </trkpt>
      <trkpt lat="43.93696" lon="6.21046">
        <ele>816</ele>
        <time>2014-05-25T12:27:57Z</time>
      </trkpt>
      <trkpt lat="43.937" lon="6.21035">
        <ele>815.7</ele>
        <time>2014-05-25T12:28:15Z</time>
      </trkpt>
      <trkpt lat="43.93692" lon="6.21031">
        <ele>813.9</ele>
        <time>2014-05-25T12:28:49Z</time>
      </trkpt>
      <trkpt lat="43.93692" lon="6.21031">
        <ele>814</ele>
        <time>2014-05-25T12:28:50Z</time>
      </trkpt>
      <trkpt lat="43.93687" lon="6.21027">
        <ele>816.8</ele>
        <time>2014-05-25T12:32:34Z</time>
      </trkpt>
      <trkpt lat="43.93687" lon="6.21027">
        <ele>816.8</ele>
        <time>2014-05-25T12:32:35Z</time>
      </trkpt>
      <trkpt lat="43.93686" lon="6.21032">
        <ele>815.3</ele>
        <time>2014-05-25T12:34:33Z</time>
      </trkpt>
      <trkpt lat="43.93686" lon="6.21033">
        <ele>815.4</ele>
        <time>2014-05-25T12:34:34Z</time>
      </trkpt>
      <trkpt lat="43.93671" lon="6.21041">
        <ele>815.3</ele>
        <time>2014-05-25T12:35:09Z</time>
      </trkpt>
      <trkpt lat="43.93664" lon="6.21034">
        <ele>814.2</ele>
        <time>2014-05-25T12:35:42Z</time>
      </trkpt>
      <trkpt lat="43.93663" lon="6.21033">
        <ele>814.1</ele>
        <time>2014-05-25T12:35:43Z</time>
      </trkpt>
      <trkpt lat="43.93654" lon="6.21045">
        <ele>813.3</ele>
        <time>2014-05-25T12:36:17Z</time>
      </trkpt>
      <trkpt lat="43.93662" lon="6.2104">
        <ele>813.2</ele>
        <time>2014-05-25T12:36:58Z</time>
      </trkpt>
      <trkpt lat="43.93663" lon="6.2104">
        <ele>813.1</ele>
        <time>2014-05-25T12:36:59Z</time>
      </trkpt>
      <trkpt lat="43.93668" lon="6.21049">
        <ele>811.3</ele>
        <time>2014-05-25T12:38:22Z</time>
      </trkpt>
      <trkpt lat="43.9368" lon="6.21066">
        <ele>813.5</ele>
        <time>2014-05-25T12:38:47Z</time>
      </trkpt>
      <trkpt lat="43.93672" lon="6.2107">
        <ele>817.5</ele>
        <time>2014-05-25T12:39:09Z</time>
      </trkpt>
      <trkpt lat="43.93667" lon="6.2108">
        <ele>819.1</ele>
        <time>2014-05-25T12:39:25Z</time>
      </trkpt>
      <trkpt lat="43.93666" lon="6.2108">
        <ele>819.1</ele>
        <time>2014-05-25T12:39:26Z</time>
      </trkpt>
      <trkpt lat="43.93678" lon="6.21095">
        <ele>819.8</ele>
        <time>2014-05-25T12:39:53Z</time>
      </trkpt>
      <trkpt lat="43.93685" lon="6.21102">
        <ele>822.2</ele>
        <time>2014-05-25T12:40:39Z</time>
      </trkpt>
      <trkpt lat="43.93686" lon="6.21102">
        <ele>822.3</ele>
        <time>2014-05-25T12:40:40Z</time>
      </trkpt>
      <trkpt lat="43.93701" lon="6.21102">
        <ele>823.5</ele>
        <time>2014-05-25T12:40:58Z</time>
      </trkpt>
      <trkpt lat="43.93709" lon="6.21098">
        <ele>823.8</ele>
        <time>2014-05-25T12:41:05Z</time>
      </trkpt>
      <trkpt lat="43.93718" lon="6.211">
        <ele>823.6</ele>
        <time>2014-05-25T12:41:12Z</time>
      </trkpt>
      <trkpt lat="43.93726" lon="6.21099">
        <ele>822.8</ele>
        <time>2014-05-25T12:41:20Z</time>
      </trkpt>
      <trkpt lat="43.93734" lon="6.21098">
        <ele>822.9</ele>
        <time>2014-05-25T12:41:27Z</time>
      </trkpt>
      <trkpt lat="43.93742" lon="6.21099">
        <ele>824.5</ele>
        <time>2014-05-25T12:41:36Z</time>
      </trkpt>
      <trkpt lat="43.93751" lon="6.21102">
        <ele>824.4</ele>
        <time>2014-05-25T12:41:42Z</time>
      </trkpt>
      <trkpt lat="43.93752" lon="6.21102">
        <ele>824.5</ele>
        <time>2014-05-25T12:41:43Z</time>
      </trkpt>
      <trkpt lat="43.93767" lon="6.211">
        <ele>825</ele>
        <time>2014-05-25T12:41:56Z</time>
      </trkpt>
      <trkpt lat="43.93775" lon="6.21103">
        <ele>824.9</ele>
        <time>2014-05-25T12:42:05Z</time>
      </trkpt>
      <trkpt lat="43.93784" lon="6.21106">
        <ele>825.7</ele>
        <time>2014-05-25T12:42:13Z</time>
      </trkpt>
      <trkpt lat="43.9379" lon="6.21114">
        <ele>825.6</ele>
        <time>2014-05-25T12:42:19Z</time>
      </trkpt>
      <trkpt lat="43.93797" lon="6.21122">
        <ele>825.3</ele>
        <time>2014-05-25T12:42:28Z</time>
      </trkpt>
      <trkpt lat="43.93805" lon="6.21126">
        <ele>824.7</ele>
        <time>2014-05-25T12:42:38Z</time>
      </trkpt>
      <trkpt lat="43.93813" lon="6.21131">
        <ele>824.3</ele>
        <time>2014-05-25T12:42:47Z</time>
      </trkpt>
      <trkpt lat="43.93813" lon="6.21132">
        <ele>824.3</ele>
        <time>2014-05-25T12:42:48Z</time>
      </trkpt>
      <trkpt lat="43.93828" lon="6.2114">
        <ele>824.1</ele>
        <time>2014-05-25T12:43:02Z</time>
      </trkpt>
      <trkpt lat="43.93836" lon="6.21144">
        <ele>823.3</ele>
        <time>2014-05-25T12:43:10Z</time>
      </trkpt>
      <trkpt lat="43.93844" lon="6.21147">
        <ele>823.5</ele>
        <time>2014-05-25T12:43:19Z</time>
      </trkpt>
      <trkpt lat="43.93852" lon="6.2115">
        <ele>824</ele>
        <time>2014-05-25T12:43:26Z</time>
      </trkpt>
      <trkpt lat="43.93861" lon="6.21151">
        <ele>825.1</ele>
        <time>2014-05-25T12:43:33Z</time>
      </trkpt>
      <trkpt lat="43.93869" lon="6.2115">
        <ele>825.7</ele>
        <time>2014-05-25T12:43:39Z</time>
      </trkpt>
      <trkpt lat="43.93878" lon="6.21151">
        <ele>825.6</ele>
        <time>2014-05-25T12:43:46Z</time>
      </trkpt>
      <trkpt lat="43.93885" lon="6.21153">
        <ele>826.3</ele>
        <time>2014-05-25T12:43:55Z</time>
      </trkpt>
      <trkpt lat="43.93887" lon="6.21154">
        <ele>826.3</ele>
        <time>2014-05-25T12:43:56Z</time>
      </trkpt>
      <trkpt lat="43.939" lon="6.21165">
        <ele>826.1</ele>
        <time>2014-05-25T12:44:08Z</time>
      </trkpt>
      <trkpt lat="43.93907" lon="6.21171">
        <ele>827.1</ele>
        <time>2014-05-25T12:44:17Z</time>
      </trkpt>
      <trkpt lat="43.93914" lon="6.21178">
        <ele>828.3</ele>
        <time>2014-05-25T12:44:28Z</time>
      </trkpt>
      <trkpt lat="43.9392" lon="6.21185">
        <ele>828.1</ele>
        <time>2014-05-25T12:44:36Z</time>
      </trkpt>
      <trkpt lat="43.93926" lon="6.21193">
        <ele>828.5</ele>
        <time>2014-05-25T12:44:43Z</time>
      </trkpt>
      <trkpt lat="43.93933" lon="6.21201">
        <ele>828.3</ele>
        <time>2014-05-25T12:44:52Z</time>
      </trkpt>
      <trkpt lat="43.9394" lon="6.21208">
        <ele>827.4</ele>
        <time>2014-05-25T12:45:01Z</time>
      </trkpt>
      <trkpt lat="43.93941" lon="6.21209">
        <ele>827.5</ele>
        <time>2014-05-25T12:45:02Z</time>
      </trkpt>
      <trkpt lat="43.9395" lon="6.21228">
        <ele>827.3</ele>
        <time>2014-05-25T12:45:15Z</time>
      </trkpt>
      <trkpt lat="43.93955" lon="6.21236">
        <ele>826.4</ele>
        <time>2014-05-25T12:45:22Z</time>
      </trkpt>
      <trkpt lat="43.93961" lon="6.21243">
        <ele>826.6</ele>
        <time>2014-05-25T12:45:29Z</time>
      </trkpt>
      <trkpt lat="43.93969" lon="6.21248">
        <ele>828</ele>
        <time>2014-05-25T12:45:39Z</time>
      </trkpt>
      <trkpt lat="43.93974" lon="6.21257">
        <ele>828.5</ele>
        <time>2014-05-25T12:45:50Z</time>
      </trkpt>
      <trkpt lat="43.9398" lon="6.21263">
        <ele>828.7</ele>
        <time>2014-05-25T12:45:59Z</time>
      </trkpt>
      <trkpt lat="43.93989" lon="6.21268">
        <ele>829.4</ele>
        <time>2014-05-25T12:46:10Z</time>
      </trkpt>
      <trkpt lat="43.93989" lon="6.21269">
        <ele>829.3</ele>
        <time>2014-05-25T12:46:11Z</time>
      </trkpt>
      <trkpt lat="43.94002" lon="6.21281">
        <ele>829.9</ele>
        <time>2014-05-25T12:46:28Z</time>
      </trkpt>
      <trkpt lat="43.94006" lon="6.21291">
        <ele>831.2</ele>
        <time>2014-05-25T12:46:37Z</time>
      </trkpt>
      <trkpt lat="43.94012" lon="6.213">
        <ele>832.4</ele>
        <time>2014-05-25T12:46:47Z</time>
      </trkpt>
      <trkpt lat="43.94017" lon="6.21309">
        <ele>831.9</ele>
        <time>2014-05-25T12:46:57Z</time>
      </trkpt>
      <trkpt lat="43.94021" lon="6.21319">
        <ele>833.1</ele>
        <time>2014-05-25T12:47:43Z</time>
      </trkpt>
      <trkpt lat="43.94022" lon="6.2132">
        <ele>833.1</ele>
        <time>2014-05-25T12:47:44Z</time>
      </trkpt>
      <trkpt lat="43.94034" lon="6.21334">
        <ele>833</ele>
        <time>2014-05-25T12:48:05Z</time>
      </trkpt>
      <trkpt lat="43.94042" lon="6.2134">
        <ele>833.5</ele>
        <time>2014-05-25T12:48:14Z</time>
      </trkpt>
      <trkpt lat="43.94049" lon="6.21346">
        <ele>832.6</ele>
        <time>2014-05-25T12:48:22Z</time>
      </trkpt>
      <trkpt lat="43.94055" lon="6.21353">
        <ele>834.1</ele>
        <time>2014-05-25T12:48:31Z</time>
      </trkpt>
      <trkpt lat="43.94062" lon="6.21359">
        <ele>835.1</ele>
        <time>2014-05-25T12:48:40Z</time>
      </trkpt>
      <trkpt lat="43.94067" lon="6.21367">
        <ele>835.3</ele>
        <time>2014-05-25T12:48:45Z</time>
      </trkpt>
      <trkpt lat="43.94069" lon="6.21368">
        <ele>835.3</ele>
        <time>2014-05-25T12:48:46Z</time>
      </trkpt>
      <trkpt lat="43.94082" lon="6.21378">
        <ele>836.9</ele>
        <time>2014-05-25T12:49:00Z</time>
      </trkpt>
      <trkpt lat="43.9409" lon="6.21384">
        <ele>838.5</ele>
        <time>2014-05-25T12:49:10Z</time>
      </trkpt>
      <trkpt lat="43.94098" lon="6.21385">
        <ele>840.5</ele>
        <time>2014-05-25T12:49:18Z</time>
      </trkpt>
      <trkpt lat="43.94104" lon="6.21393">
        <ele>840.4</ele>
        <time>2014-05-25T12:49:28Z</time>
      </trkpt>
      <trkpt lat="43.94111" lon="6.214">
        <ele>842.2</ele>
        <time>2014-05-25T12:49:41Z</time>
      </trkpt>
      <trkpt lat="43.94119" lon="6.21407">
        <ele>844.7</ele>
        <time>2014-05-25T12:49:51Z</time>
      </trkpt>
      <trkpt lat="43.94119" lon="6.21408">
        <ele>844.7</ele>
        <time>2014-05-25T12:49:52Z</time>
      </trkpt>
      <trkpt lat="43.9413" lon="6.21424">
        <ele>844.3</ele>
        <time>2014-05-25T12:50:07Z</time>
      </trkpt>
      <trkpt lat="43.94133" lon="6.21436">
        <ele>844.3</ele>
        <time>2014-05-25T12:50:15Z</time>
      </trkpt>
      <trkpt lat="43.94134" lon="6.21447">
        <ele>845</ele>
        <time>2014-05-25T12:50:22Z</time>
      </trkpt>
      <trkpt lat="43.94134" lon="6.21459">
        <ele>845.1</ele>
        <time>2014-05-25T12:50:32Z</time>
      </trkpt>
      <trkpt lat="43.94139" lon="6.21469">
        <ele>845.9</ele>
        <time>2014-05-25T12:50:46Z</time>
      </trkpt>
      <trkpt lat="43.9414" lon="6.21481">
        <ele>847</ele>
        <time>2014-05-25T12:50:57Z</time>
      </trkpt>
      <trkpt lat="43.9414" lon="6.21482">
        <ele>847</ele>
        <time>2014-05-25T12:50:58Z</time>
      </trkpt>
      <trkpt lat="43.94146" lon="6.21503">
        <ele>849.5</ele>
        <time>2014-05-25T12:51:19Z</time>
      </trkpt>
      <trkpt lat="43.94148" lon="6.21515">
        <ele>849.9</ele>
        <time>2014-05-25T12:51:28Z</time>
      </trkpt>
      <trkpt lat="43.94147" lon="6.21527">
        <ele>850.2</ele>
        <time>2014-05-25T12:51:40Z</time>
      </trkpt>
      <trkpt lat="43.94151" lon="6.21538">
        <ele>850.7</ele>
        <time>2014-05-25T12:51:51Z</time>
      </trkpt>
      <trkpt lat="43.94151" lon="6.2155">
        <ele>851.6</ele>
        <time>2014-05-25T12:52:01Z</time>
      </trkpt>
      <trkpt lat="43.9415" lon="6.21551">
        <ele>851.6</ele>
        <time>2014-05-25T12:52:02Z</time>
      </trkpt>
      <trkpt lat="43.94145" lon="6.21571">
        <ele>851.9</ele>
        <time>2014-05-25T12:52:20Z</time>
      </trkpt>
      <trkpt lat="43.94144" lon="6.21582">
        <ele>850.7</ele>
        <time>2014-05-25T12:52:29Z</time>
      </trkpt>
      <trkpt lat="43.94145" lon="6.21594">
        <ele>849.7</ele>
        <time>2014-05-25T12:52:37Z</time>
      </trkpt>
      <trkpt lat="43.94149" lon="6.21604">
        <ele>849.1</ele>
        <time>2014-05-25T12:52:47Z</time>
      </trkpt>
      <trkpt lat="43.9415" lon="6.21616">
        <ele>847.9</ele>
        <time>2014-05-25T12:53:01Z</time>
      </trkpt>
      <trkpt lat="43.94146" lon="6.21627">
        <ele>847</ele>
        <time>2014-05-25T12:53:11Z</time>
      </trkpt>
      <trkpt lat="43.94146" lon="6.21628">
        <ele>846.6</ele>
        <time>2014-05-25T12:53:12Z</time>
      </trkpt>
      <trkpt lat="43.94141" lon="6.21651">
        <ele>844.2</ele>
        <time>2014-05-25T12:53:34Z</time>
      </trkpt>
      <trkpt lat="43.94138" lon="6.21662">
        <ele>843.1</ele>
        <time>2014-05-25T12:53:49Z</time>
      </trkpt>
      <trkpt lat="43.94139" lon="6.21674">
        <ele>841.9</ele>
        <time>2014-05-25T12:54:00Z</time>
      </trkpt>
      <trkpt lat="43.94138" lon="6.21686">
        <ele>840.5</ele>
        <time>2014-05-25T12:54:13Z</time>
      </trkpt>
      <trkpt lat="43.94137" lon="6.21688">
        <ele>840.4</ele>
        <time>2014-05-25T12:54:14Z</time>
      </trkpt>
      <trkpt lat="43.94148" lon="6.21688">
        <ele>839.4</ele>
        <time>2014-05-25T12:54:45Z</time>
      </trkpt>
      <trkpt lat="43.9414" lon="6.21694">
        <ele>838.8</ele>
        <time>2014-05-25T12:55:20Z</time>
      </trkpt>
      <trkpt lat="43.94139" lon="6.21694">
        <ele>838.9</ele>
        <time>2014-05-25T12:55:21Z</time>
      </trkpt>
      <trkpt lat="43.94156" lon="6.21688">
        <ele>837.6</ele>
        <time>2014-05-25T12:55:53Z</time>
      </trkpt>
      <trkpt lat="43.94158" lon="6.21701">
        <ele>833.3</ele>
        <time>2014-05-25T12:56:27Z</time>
      </trkpt>
      <trkpt lat="43.94158" lon="6.21701">
        <ele>833.3</ele>
        <time>2014-05-25T12:56:28Z</time>
      </trkpt>
      <trkpt lat="43.94163" lon="6.21722">
        <ele>829</ele>
        <time>2014-05-25T12:56:56Z</time>
      </trkpt>
      <trkpt lat="43.94169" lon="6.21729">
        <ele>828.8</ele>
        <time>2014-05-25T12:57:02Z</time>
      </trkpt>
      <trkpt lat="43.94176" lon="6.21735">
        <ele>824.9</ele>
        <time>2014-05-25T12:57:15Z</time>
      </trkpt>
      <trkpt lat="43.94184" lon="6.21729">
        <ele>821.6</ele>
        <time>2014-05-25T12:57:31Z</time>
      </trkpt>
      <trkpt lat="43.94185" lon="6.21729">
        <ele>822.4</ele>
        <time>2014-05-25T12:57:32Z</time>
      </trkpt>
      <trkpt lat="43.94198" lon="6.21715">
        <ele>820.3</ele>
        <time>2014-05-25T12:57:52Z</time>
      </trkpt>
      <trkpt lat="43.94205" lon="6.21712">
        <ele>817.8</ele>
        <time>2014-05-25T12:58:02Z</time>
      </trkpt>
      <trkpt lat="43.94213" lon="6.21704">
        <ele>817.1</ele>
        <time>2014-05-25T12:58:11Z</time>
      </trkpt>
      <trkpt lat="43.9422" lon="6.21709">
        <ele>814.6</ele>
        <time>2014-05-25T12:58:28Z</time>
      </trkpt>
      <trkpt lat="43.94227" lon="6.21715">
        <ele>812.8</ele>
        <time>2014-05-25T12:58:38Z</time>
      </trkpt>
      <trkpt lat="43.94228" lon="6.21717">
        <ele>812.7</ele>
        <time>2014-05-25T12:58:39Z</time>
      </trkpt>
      <trkpt lat="43.94237" lon="6.21734">
        <ele>810.8</ele>
        <time>2014-05-25T12:58:58Z</time>
      </trkpt>
      <trkpt lat="43.94241" lon="6.21743">
        <ele>810.1</ele>
        <time>2014-05-25T12:59:06Z</time>
      </trkpt>
      <trkpt lat="43.94244" lon="6.21755">
        <ele>808.8</ele>
        <time>2014-05-25T12:59:20Z</time>
      </trkpt>
      <trkpt lat="43.94243" lon="6.21767">
        <ele>809</ele>
        <time>2014-05-25T12:59:35Z</time>
      </trkpt>
      <trkpt lat="43.94243" lon="6.21779">
        <ele>808.3</ele>
        <time>2014-05-25T12:59:46Z</time>
      </trkpt>
      <trkpt lat="43.94243" lon="6.21779">
        <ele>808.1</ele>
        <time>2014-05-25T12:59:47Z</time>
      </trkpt>
      <trkpt lat="43.9425" lon="6.218">
        <ele>802.6</ele>
        <time>2014-05-25T13:00:09Z</time>
      </trkpt>
      <trkpt lat="43.94255" lon="6.2181">
        <ele>801.3</ele>
        <time>2014-05-25T13:00:24Z</time>
      </trkpt>
      <trkpt lat="43.94258" lon="6.21821">
        <ele>800.1</ele>
        <time>2014-05-25T13:00:37Z</time>
      </trkpt>
      <trkpt lat="43.94263" lon="6.2183">
        <ele>799</ele>
        <time>2014-05-25T13:00:51Z</time>
      </trkpt>
      <trkpt lat="43.94264" lon="6.21831">
        <ele>799</ele>
        <time>2014-05-25T13:00:52Z</time>
      </trkpt>
      <trkpt lat="43.94268" lon="6.21853">
        <ele>795.6</ele>
        <time>2014-05-25T13:01:18Z</time>
      </trkpt>
      <trkpt lat="43.94272" lon="6.21864">
        <ele>792.3</ele>
        <time>2014-05-25T13:01:47Z</time>
      </trkpt>
      <trkpt lat="43.9427" lon="6.21875">
        <ele>789.8</ele>
        <time>2014-05-25T13:02:03Z</time>
      </trkpt>
      <trkpt lat="43.94269" lon="6.21876">
        <ele>789.5</ele>
        <time>2014-05-25T13:02:04Z</time>
      </trkpt>
      <trkpt lat="43.94278" lon="6.21893">
        <ele>787.7</ele>
        <time>2014-05-25T13:02:25Z</time>
      </trkpt>
      <trkpt lat="43.94279" lon="6.21905">
        <ele>786</ele>
        <time>2014-05-25T13:02:40Z</time>
      </trkpt>
      <trkpt lat="43.94282" lon="6.21916">
        <ele>785</ele>
        <time>2014-05-25T13:02:50Z</time>
      </trkpt>
      <trkpt lat="43.94287" lon="6.21927">
        <ele>783</ele>
        <time>2014-05-25T13:03:02Z</time>
      </trkpt>
      <trkpt lat="43.94293" lon="6.21934">
        <ele>781.6</ele>
        <time>2014-05-25T13:03:11Z</time>
      </trkpt>
      <trkpt lat="43.94294" lon="6.21935">
        <ele>781.5</ele>
        <time>2014-05-25T13:03:12Z</time>
      </trkpt>
      <trkpt lat="43.94301" lon="6.21951">
        <ele>778.9</ele>
        <time>2014-05-25T13:03:33Z</time>
      </trkpt>
      <trkpt lat="43.94303" lon="6.21963">
        <ele>777.1</ele>
        <time>2014-05-25T13:03:45Z</time>
      </trkpt>
      <trkpt lat="43.9431" lon="6.21971">
        <ele>775</ele>
        <time>2014-05-25T13:04:00Z</time>
      </trkpt>
      <trkpt lat="43.94316" lon="6.21981">
        <ele>772.8</ele>
        <time>2014-05-25T13:04:17Z</time>
      </trkpt>
      <trkpt lat="43.94317" lon="6.21981">
        <ele>772.4</ele>
        <time>2014-05-25T13:04:18Z</time>
      </trkpt>
      <trkpt lat="43.94328" lon="6.21998">
        <ele>768.9</ele>
        <time>2014-05-25T13:04:38Z</time>
      </trkpt>
      <trkpt lat="43.94331" lon="6.22009">
        <ele>766.2</ele>
        <time>2014-05-25T13:04:49Z</time>
      </trkpt>
      <trkpt lat="43.94332" lon="6.2202">
        <ele>765.3</ele>
        <time>2014-05-25T13:04:58Z</time>
      </trkpt>
      <trkpt lat="43.94334" lon="6.22032">
        <ele>763.8</ele>
        <time>2014-05-25T13:05:10Z</time>
      </trkpt>
      <trkpt lat="43.94341" lon="6.22038">
        <ele>761.4</ele>
        <time>2014-05-25T13:05:18Z</time>
      </trkpt>
      <trkpt lat="43.94342" lon="6.22038">
        <ele>761.6</ele>
        <time>2014-05-25T13:05:19Z</time>
      </trkpt>
      <trkpt lat="43.94351" lon="6.22056">
        <ele>758.9</ele>
        <time>2014-05-25T13:05:39Z</time>
      </trkpt>
      <trkpt lat="43.94359" lon="6.22061">
        <ele>757.5</ele>
        <time>2014-05-25T13:05:48Z</time>
      </trkpt>
      <trkpt lat="43.94364" lon="6.22071">
        <ele>756.6</ele>
        <time>2014-05-25T13:05:57Z</time>
      </trkpt>
      <trkpt lat="43.9437" lon="6.22081">
        <ele>755.1</ele>
        <time>2014-05-25T13:06:11Z</time>
      </trkpt>
      <trkpt lat="43.94377" lon="6.22087">
        <ele>753</ele>
        <time>2014-05-25T13:06:24Z</time>
      </trkpt>
      <trkpt lat="43.94378" lon="6.22087">
        <ele>753.1</ele>
        <time>2014-05-25T13:06:25Z</time>
      </trkpt>
      <trkpt lat="43.94392" lon="6.22092">
        <ele>751.5</ele>
        <time>2014-05-25T13:06:38Z</time>
      </trkpt>
      <trkpt lat="43.94399" lon="6.22098">
        <ele>748.5</ele>
        <time>2014-05-25T13:07:01Z</time>
      </trkpt>
      <trkpt lat="43.94408" lon="6.22098">
        <ele>747.6</ele>
        <time>2014-05-25T13:07:10Z</time>
      </trkpt>
      <trkpt lat="43.94413" lon="6.22108">
        <ele>745.1</ele>
        <time>2014-05-25T13:07:29Z</time>
      </trkpt>
      <trkpt lat="43.94413" lon="6.22109">
        <ele>744.9</ele>
        <time>2014-05-25T13:07:30Z</time>
      </trkpt>
      <trkpt lat="43.94407" lon="6.2213">
        <ele>741.5</ele>
        <time>2014-05-25T13:08:06Z</time>
      </trkpt>
      <trkpt lat="43.94406" lon="6.22142">
        <ele>740.2</ele>
        <time>2014-05-25T13:08:25Z</time>
      </trkpt>
      <trkpt lat="43.94412" lon="6.22151">
        <ele>739.9</ele>
        <time>2014-05-25T13:08:39Z</time>
      </trkpt>
      <trkpt lat="43.94412" lon="6.22153">
        <ele>739.9</ele>
        <time>2014-05-25T13:08:40Z</time>
      </trkpt>
      <trkpt lat="43.9442" lon="6.22164">
        <ele>737.7</ele>
        <time>2014-05-25T13:09:07Z</time>
      </trkpt>
      <trkpt lat="43.94425" lon="6.22174">
        <ele>734.1</ele>
        <time>2014-05-25T13:09:32Z</time>
      </trkpt>
      <trkpt lat="43.9443" lon="6.22185">
        <ele>731.7</ele>
        <time>2014-05-25T13:09:47Z</time>
      </trkpt>
      <trkpt lat="43.94431" lon="6.22185">
        <ele>731.6</ele>
        <time>2014-05-25T13:09:48Z</time>
      </trkpt>
      <trkpt lat="43.94446" lon="6.22191">
        <ele>728.7</ele>
        <time>2014-05-25T13:10:15Z</time>
      </trkpt>
      <trkpt lat="43.94444" lon="6.22203">
        <ele>724.2</ele>
        <time>2014-05-25T13:10:50Z</time>
      </trkpt>
      <trkpt lat="43.94444" lon="6.22205">
        <ele>724.1</ele>
        <time>2014-05-25T13:10:51Z</time>
      </trkpt>
      <trkpt lat="43.94457" lon="6.22217">
        <ele>721.8</ele>
        <time>2014-05-25T13:11:16Z</time>
      </trkpt>
      <trkpt lat="43.94463" lon="6.22227">
        <ele>718</ele>
        <time>2014-05-25T13:11:36Z</time>
      </trkpt>
      <trkpt lat="43.9447" lon="6.22226">
        <ele>716.8</ele>
        <time>2014-05-25T13:11:46Z</time>
      </trkpt>
      <trkpt lat="43.94477" lon="6.22234">
        <ele>712.1</ele>
        <time>2014-05-25T13:12:07Z</time>
      </trkpt>
      <trkpt lat="43.94478" lon="6.22234">
        <ele>712.5</ele>
        <time>2014-05-25T13:12:08Z</time>
      </trkpt>
      <trkpt lat="43.94494" lon="6.22243">
        <ele>706.4</ele>
        <time>2014-05-25T13:12:46Z</time>
      </trkpt>
      <trkpt lat="43.945" lon="6.22251">
        <ele>704.3</ele>
        <time>2014-05-25T13:13:07Z</time>
      </trkpt>
      <trkpt lat="43.94507" lon="6.22259">
        <ele>701.5</ele>
        <time>2014-05-25T13:13:25Z</time>
      </trkpt>
      <trkpt lat="43.94508" lon="6.22259">
        <ele>701.4</ele>
        <time>2014-05-25T13:13:26Z</time>
      </trkpt>
      <trkpt lat="43.94519" lon="6.22275">
        <ele>698.5</ele>
        <time>2014-05-25T13:13:48Z</time>
      </trkpt>
      <trkpt lat="43.94523" lon="6.22286">
        <ele>698.3</ele>
        <time>2014-05-25T13:13:57Z</time>
      </trkpt>
      <trkpt lat="43.9453" lon="6.22294">
        <ele>697.1</ele>
        <time>2014-05-25T13:14:07Z</time>
      </trkpt>
      <trkpt lat="43.94531" lon="6.22306">
        <ele>696.3</ele>
        <time>2014-05-25T13:14:21Z</time>
      </trkpt>
      <trkpt lat="43.94532" lon="6.22318">
        <ele>694.4</ele>
        <time>2014-05-25T13:14:32Z</time>
      </trkpt>
      <trkpt lat="43.94532" lon="6.22319">
        <ele>694.1</ele>
        <time>2014-05-25T13:14:33Z</time>
      </trkpt>
      <trkpt lat="43.94539" lon="6.22338">
        <ele>691.1</ele>
        <time>2014-05-25T13:14:54Z</time>
      </trkpt>
      <trkpt lat="43.94546" lon="6.22345">
        <ele>690.9</ele>
        <time>2014-05-25T13:15:06Z</time>
      </trkpt>
      <trkpt lat="43.94552" lon="6.22355">
        <ele>689.4</ele>
        <time>2014-05-25T13:15:17Z</time>
      </trkpt>
      <trkpt lat="43.94555" lon="6.22366">
        <ele>688.5</ele>
        <time>2014-05-25T13:15:29Z</time>
      </trkpt>
      <trkpt lat="43.94556" lon="6.22377">
        <ele>686.7</ele>
        <time>2014-05-25T13:15:36Z</time>
      </trkpt>
      <trkpt lat="43.94557" lon="6.22379">
        <ele>686.6</ele>
        <time>2014-05-25T13:15:37Z</time>
      </trkpt>
      <trkpt lat="43.94567" lon="6.22395">
        <ele>687.2</ele>
        <time>2014-05-25T13:15:59Z</time>
      </trkpt>
      <trkpt lat="43.94565" lon="6.22408">
        <ele>685</ele>
        <time>2014-05-25T13:16:15Z</time>
      </trkpt>
      <trkpt lat="43.94565" lon="6.22421">
        <ele>683</ele>
        <time>2014-05-25T13:16:27Z</time>
      </trkpt>
      <trkpt lat="43.94573" lon="6.22427">
        <ele>682</ele>
        <time>2014-05-25T13:16:41Z</time>
      </trkpt>
      <trkpt lat="43.94575" lon="6.22429">
        <ele>682.2</ele>
        <time>2014-05-25T13:16:45Z</time>
      </trkpt>
      <trkpt lat="43.94585" lon="6.22414">
        <ele>678</ele>
        <time>2014-05-25T13:17:10Z</time>
      </trkpt>
      <trkpt lat="43.94594" lon="6.22411">
        <ele>671</ele>
        <time>2014-05-25T13:17:50Z</time>
      </trkpt>
      <trkpt lat="43.94596" lon="6.2241">
        <ele>671.9</ele>
        <time>2014-05-25T13:17:52Z</time>
      </trkpt>
      <trkpt lat="43.94601" lon="6.22415">
        <ele>666</ele>
        <time>2014-05-25T13:18:30Z</time>
      </trkpt>
      <trkpt lat="43.94603" lon="6.2243">
        <ele>663</ele>
        <time>2014-05-25T13:18:50Z</time>
      </trkpt>
      <trkpt lat="43.94602" lon="6.22445">
        <ele>660</ele>
        <time>2014-05-25T13:19:06Z</time>
      </trkpt>
      <trkpt lat="43.94603" lon="6.22446">
        <ele>660.6</ele>
        <time>2014-05-25T13:19:08Z</time>
      </trkpt>
      <trkpt lat="43.94611" lon="6.22471">
        <ele>654</ele>
        <time>2014-05-25T13:19:43Z</time>
      </trkpt>
      <trkpt lat="43.94622" lon="6.22476">
        <ele>653</ele>
        <time>2014-05-25T13:19:56Z</time>
      </trkpt>
      <trkpt lat="43.94628" lon="6.22464">
        <ele>653</ele>
        <time>2014-05-25T13:20:08Z</time>
      </trkpt>
      <trkpt lat="43.94629" lon="6.22462">
        <ele>653.2</ele>
        <time>2014-05-25T13:20:10Z</time>
      </trkpt>
      <trkpt lat="43.94646" lon="6.22442">
        <ele>648</ele>
        <time>2014-05-25T13:20:40Z</time>
      </trkpt>
      <trkpt lat="43.94656" lon="6.22452">
        <ele>642</ele>
        <time>2014-05-25T13:21:25Z</time>
      </trkpt>
      <trkpt lat="43.94658" lon="6.22452">
        <ele>642.8</ele>
        <time>2014-05-25T13:21:27Z</time>
      </trkpt>
      <trkpt lat="43.94668" lon="6.22436">
        <ele>638</ele>
        <time>2014-05-25T13:21:45Z</time>
      </trkpt>
      <trkpt lat="43.94678" lon="6.2244">
        <ele>633</ele>
        <time>2014-05-25T13:22:17Z</time>
      </trkpt>
      <trkpt lat="43.94682" lon="6.22452">
        <ele>631</ele>
        <time>2014-05-25T13:22:37Z</time>
      </trkpt>
      <trkpt lat="43.94683" lon="6.22452">
        <ele>632.1</ele>
        <time>2014-05-25T13:22:39Z</time>
      </trkpt>
      <trkpt lat="43.94691" lon="6.22476">
        <ele>625</ele>
        <time>2014-05-25T13:23:05Z</time>
      </trkpt>
      <trkpt lat="43.94703" lon="6.22479">
        <ele>623</ele>
        <time>2014-05-25T13:23:17Z</time>
      </trkpt>
      <trkpt lat="43.94711" lon="6.22489">
        <ele>621</ele>
        <time>2014-05-25T13:23:25Z</time>
      </trkpt>
      <trkpt lat="43.94723" lon="6.22494">
        <ele>619</ele>
        <time>2014-05-25T13:23:41Z</time>
      </trkpt>
      <trkpt lat="43.94723" lon="6.22495">
        <ele>619</ele>
        <time>2014-05-25T13:23:43Z</time>
      </trkpt>
      <trkpt lat="43.94726" lon="6.22517">
        <ele>612</ele>
        <time>2014-05-25T13:24:33Z</time>
      </trkpt>
      <trkpt lat="43.94718" lon="6.22528">
        <ele>610</ele>
        <time>2014-05-25T13:24:53Z</time>
      </trkpt>
      <trkpt lat="43.94718" lon="6.22529">
        <ele>610.6</ele>
        <time>2014-05-25T13:24:55Z</time>
      </trkpt>
      <trkpt lat="43.94722" lon="6.22554">
        <ele>607</ele>
        <time>2014-05-25T13:25:45Z</time>
      </trkpt>
      <trkpt lat="43.9473" lon="6.22542">
        <ele>608</ele>
        <time>2014-05-25T13:26:03Z</time>
      </trkpt>
      <trkpt lat="43.94731" lon="6.22541">
        <ele>608.1</ele>
        <time>2014-05-25T13:26:05Z</time>
      </trkpt>
      <trkpt lat="43.94721" lon="6.22534">
        <ele>608</ele>
        <time>2014-05-25T13:27:16Z</time>
      </trkpt>
      <trkpt lat="43.94717" lon="6.22551">
        <ele>607.2</ele>
        <time>2014-05-25T13:27:41Z</time>
      </trkpt>
      <trkpt lat="43.94708" lon="6.22547">
        <ele>606</ele>
        <time>2014-05-25T13:28:24Z</time>
      </trkpt>
      <trkpt lat="43.94709" lon="6.22547">
        <ele>607.1</ele>
        <time>2014-05-25T13:28:26Z</time>
      </trkpt>
      <trkpt lat="43.94724" lon="6.22548">
        <ele>607.1</ele>
        <time>2014-05-25T13:29:03Z</time>
      </trkpt>
      <trkpt lat="43.94733" lon="6.22548">
        <ele>607.1</ele>
        <time>2014-05-25T13:29:06Z</time>
      </trkpt>
      <trkpt lat="43.94736" lon="6.22559">
        <ele>606.1</ele>
        <time>2014-05-25T13:29:29Z</time>
      </trkpt>
      <trkpt lat="43.94735" lon="6.2256">
        <ele>606</ele>
        <time>2014-05-25T13:29:30Z</time>
      </trkpt>
      <trkpt lat="43.94751" lon="6.22558">
        <ele>604.4</ele>
        <time>2014-05-25T13:29:46Z</time>
      </trkpt>
      <trkpt lat="43.94757" lon="6.22551">
        <ele>605.2</ele>
        <time>2014-05-25T13:29:53Z</time>
      </trkpt>
      <trkpt lat="43.94763" lon="6.22546">
        <ele>604.7</ele>
        <time>2014-05-25T13:30:02Z</time>
      </trkpt>
      <trkpt lat="43.94771" lon="6.22549">
        <ele>604.6</ele>
        <time>2014-05-25T13:30:05Z</time>
      </trkpt>
      <trkpt lat="43.9478" lon="6.22551">
        <ele>604.5</ele>
        <time>2014-05-25T13:30:09Z</time>
      </trkpt>
      <trkpt lat="43.94788" lon="6.22549">
        <ele>605.6</ele>
        <time>2014-05-25T13:30:15Z</time>
      </trkpt>
      <trkpt lat="43.94794" lon="6.22542">
        <ele>605.1</ele>
        <time>2014-05-25T13:30:23Z</time>
      </trkpt>
      <trkpt lat="43.94802" lon="6.22536">
        <ele>604.6</ele>
        <time>2014-05-25T13:30:34Z</time>
      </trkpt>
      <trkpt lat="43.94802" lon="6.22535">
        <ele>604.8</ele>
        <time>2014-05-25T13:30:35Z</time>
      </trkpt>
      <trkpt lat="43.948" lon="6.22515">
        <ele>605.2</ele>
        <time>2014-05-25T13:30:50Z</time>
      </trkpt>
      <trkpt lat="43.94797" lon="6.22503">
        <ele>604.5</ele>
        <time>2014-05-25T13:30:58Z</time>
      </trkpt>
      <trkpt lat="43.94795" lon="6.22492">
        <ele>603.8</ele>
        <time>2014-05-25T13:31:06Z</time>
      </trkpt>
      <trkpt lat="43.94799" lon="6.22485">
        <ele>604.2</ele>
        <time>2014-05-25T13:31:11Z</time>
      </trkpt>
      <trkpt lat="43.94807" lon="6.22483">
        <ele>605</ele>
        <time>2014-05-25T13:31:14Z</time>
      </trkpt>
      <trkpt lat="43.94808" lon="6.22471">
        <ele>602.5</ele>
        <time>2014-05-25T13:31:30Z</time>
      </trkpt>
      <trkpt lat="43.94806" lon="6.22459">
        <ele>603.4</ele>
        <time>2014-05-25T13:31:48Z</time>
      </trkpt>
      <trkpt lat="43.94806" lon="6.22459">
        <ele>603.4</ele>
        <time>2014-05-25T13:31:49Z</time>
      </trkpt>
      <trkpt lat="43.94806" lon="6.22437">
        <ele>604.3</ele>
        <time>2014-05-25T13:32:09Z</time>
      </trkpt>
      <trkpt lat="43.94811" lon="6.22429">
        <ele>603.7</ele>
        <time>2014-05-25T13:32:16Z</time>
      </trkpt>
      <trkpt lat="43.94818" lon="6.22427">
        <ele>603.6</ele>
        <time>2014-05-25T13:32:19Z</time>
      </trkpt>
      <trkpt lat="43.94818" lon="6.22415">
        <ele>603.1</ele>
        <time>2014-05-25T13:32:28Z</time>
      </trkpt>
      <trkpt lat="43.94816" lon="6.22404">
        <ele>604.1</ele>
        <time>2014-05-25T13:32:37Z</time>
      </trkpt>
      <trkpt lat="43.94814" lon="6.22392">
        <ele>603.5</ele>
        <time>2014-05-25T13:32:45Z</time>
      </trkpt>
      <trkpt lat="43.94811" lon="6.22381">
        <ele>603.8</ele>
        <time>2014-05-25T13:32:53Z</time>
      </trkpt>
      <trkpt lat="43.9481" lon="6.2238">
        <ele>603.8</ele>
        <time>2014-05-25T13:32:54Z</time>
      </trkpt>
      <trkpt lat="43.94814" lon="6.22362">
        <ele>603.3</ele>
        <time>2014-05-25T13:33:07Z</time>
      </trkpt>
      <trkpt lat="43.94813" lon="6.22349">
        <ele>603.7</ele>
        <time>2014-05-25T13:33:17Z</time>
      </trkpt>
      <trkpt lat="43.9481" lon="6.2234">
        <ele>604.7</ele>
        <time>2014-05-25T13:33:22Z</time>
      </trkpt>
      <trkpt lat="43.94805" lon="6.2233">
        <ele>605.6</ele>
        <time>2014-05-25T13:33:27Z</time>
      </trkpt>
      <trkpt lat="43.94811" lon="6.22322">
        <ele>605.2</ele>
        <time>2014-05-25T13:33:35Z</time>
      </trkpt>
      <trkpt lat="43.94809" lon="6.22311">
        <ele>605.3</ele>
        <time>2014-05-25T13:33:48Z</time>
      </trkpt>
      <trkpt lat="43.94811" lon="6.223">
        <ele>605.7</ele>
        <time>2014-05-25T13:34:08Z</time>
      </trkpt>
      <trkpt lat="43.94811" lon="6.22298">
        <ele>605.9</ele>
        <time>2014-05-25T13:34:09Z</time>
      </trkpt>
      <trkpt lat="43.94816" lon="6.22276">
        <ele>607.7</ele>
        <time>2014-05-25T13:34:52Z</time>
      </trkpt>
      <trkpt lat="43.94812" lon="6.22265">
        <ele>607.8</ele>
        <time>2014-05-25T13:35:02Z</time>
      </trkpt>
      <trkpt lat="43.94812" lon="6.22253">
        <ele>608.5</ele>
        <time>2014-05-25T13:35:16Z</time>
      </trkpt>
      <trkpt lat="43.94813" lon="6.22252">
        <ele>608.7</ele>
        <time>2014-05-25T13:35:17Z</time>
      </trkpt>
      <trkpt lat="43.94825" lon="6.22238">
        <ele>609.7</ele>
        <time>2014-05-25T13:35:42Z</time>
      </trkpt>
      <trkpt lat="43.94829" lon="6.22228">
        <ele>611.7</ele>
        <time>2014-05-25T13:35:55Z</time>
      </trkpt>
      <trkpt lat="43.94832" lon="6.22217">
        <ele>612.2</ele>
        <time>2014-05-25T13:36:04Z</time>
      </trkpt>
      <trkpt lat="43.94831" lon="6.22205">
        <ele>610.1</ele>
        <time>2014-05-25T13:36:14Z</time>
      </trkpt>
      <trkpt lat="43.94826" lon="6.22196">
        <ele>610.7</ele>
        <time>2014-05-25T13:36:20Z</time>
      </trkpt>
      <trkpt lat="43.94825" lon="6.22195">
        <ele>610.7</ele>
        <time>2014-05-25T13:36:21Z</time>
      </trkpt>
      <trkpt lat="43.94813" lon="6.22181">
        <ele>609.5</ele>
        <time>2014-05-25T13:36:38Z</time>
      </trkpt>
      <trkpt lat="43.94805" lon="6.22176">
        <ele>609.4</ele>
        <time>2014-05-25T13:36:46Z</time>
      </trkpt>
      <trkpt lat="43.94797" lon="6.22173">
        <ele>609.1</ele>
        <time>2014-05-25T13:36:53Z</time>
      </trkpt>
      <trkpt lat="43.94789" lon="6.22169">
        <ele>609</ele>
        <time>2014-05-25T13:37:01Z</time>
      </trkpt>
      <trkpt lat="43.94782" lon="6.22176">
        <ele>608.2</ele>
        <time>2014-05-25T13:37:13Z</time>
      </trkpt>
      <trkpt lat="43.9478" lon="6.22187">
        <ele>608.1</ele>
        <time>2014-05-25T13:37:23Z</time>
      </trkpt>
      <trkpt lat="43.9478" lon="6.22188">
        <ele>608.1</ele>
        <time>2014-05-25T13:37:24Z</time>
      </trkpt>
      <trkpt lat="43.94764" lon="6.22189">
        <ele>607.1</ele>
        <time>2014-05-25T13:37:45Z</time>
      </trkpt>
      <trkpt lat="43.94757" lon="6.22184">
        <ele>606</ele>
        <time>2014-05-25T13:37:52Z</time>
      </trkpt>
      <trkpt lat="43.94749" lon="6.2218">
        <ele>606.7</ele>
        <time>2014-05-25T13:38:00Z</time>
      </trkpt>
      <trkpt lat="43.9474" lon="6.22179">
        <ele>605.9</ele>
        <time>2014-05-25T13:38:20Z</time>
      </trkpt>
      <trkpt lat="43.94731" lon="6.22178">
        <ele>607.6</ele>
        <time>2014-05-25T13:38:44Z</time>
      </trkpt>
      <trkpt lat="43.94731" lon="6.22178">
        <ele>607.3</ele>
        <time>2014-05-25T13:38:45Z</time>
      </trkpt>
      <trkpt lat="43.94748" lon="6.22187">
        <ele>606.7</ele>
        <time>2014-05-25T13:39:30Z</time>
      </trkpt>
      <trkpt lat="43.9474" lon="6.2219">
        <ele>607.6</ele>
        <time>2014-05-25T13:40:01Z</time>
      </trkpt>
      <trkpt lat="43.94739" lon="6.22189">
        <ele>607.8</ele>
        <time>2014-05-25T13:40:02Z</time>
      </trkpt>
      <trkpt lat="43.94742" lon="6.22181">
        <ele>607.9</ele>
        <time>2014-05-25T13:40:09Z</time>
      </trkpt>
    </trkseg>
  </trk>
</gpx>